AXLKWOA
HFDTE201013
HFPLTPILOT:WOLF.HIRTH
HFGTYGLIDERTYPE:ADVANCE_OMEGA_8
HFGIDGLIDERID:
HFCCLCOMPETITIONCLASS:SERIAL
HFCIDCOMPETITIONID:2
HFFTYFRTYPE:LK8000 PPC2003
HFRFWFIRMWAREVERSION:4.0b
HFDTM100GPSDATUM:WGS-84
C2010131246110000000000-2
C3653703N00524951WTAKEOFF
C3653703N00524951WTAKEOFF
B1246113653703N00524951WA0000000944
B1246123653703N00524951WA0000000944
B1246133653703N00524951WA0000000944
B1246143653703N00524951WA0000000944
B1246153653703N00524951WA0000000944
B1246163653703N00524951WA0000000944
B1246173653703N00524951WA0000000944
B1246183653703N00524951WA0000000944
B1246193653703N00524951WA0000000944
B1246203653703N00524951WA0000000944
B1246213653703N00524951WA0000000944
B1246223653703N00524951WA0000000944
B1246233653703N00524951WA0000000944
B1246243653703N00524951WA0000000944
B1246253653703N00524951WA0000000944
B1246263653703N00524951WA0000000944
B1246273653703N00524951WA0000000944
B1246283653703N00524951WA0000000944
B1246293653703N00524951WA0000000944
B1246303653703N00524951WA0000000944
B1246313653703N00524951WA0000000944
B1246323653703N00524951WA0000000944
B1246333653703N00524951WA0000000944
B1246343653703N00524951WA0000000944
B1246353653703N00524951WA0000000944
B1246363653703N00524951WA0000000944
B1246373653703N00524951WA0000000944
B1246383653703N00524951WA0000000944
B1246393653703N00524951WA0000000944
B1246403653703N00524951WA0000000944
B1246413653703N00524951WA0000000944
B1246423653703N00524951WA0000000944
B1246433653703N00524951WA0000000944
B1246443653703N00524951WA0000000944
B1246453653703N00524951WA0000000944
B1246463653703N00524951WA0000000944
B1246473653703N00524951WA0000000944
B1246483653703N00524951WA0000000944
B1246493653703N00524951WA0000000944
B1246503653703N00524951WA0000000944
B1246513653703N00524951WA0000000944
B1246523653703N00524951WA0000000944
B1246533653703N00524951WA0000000944
B1246543653703N00524951WA0000000944
B1246553653703N00524951WA0000000944
B1246563653703N00524951WA0000000944
B1246573653703N00524951WA0000000944
B1246583653703N00524951WA0000000944
B1246593653703N00524951WA0000000944
B1247003653692N00524952WA0000000914
B1247013653692N00524953WA0000000914
B1247023653692N00524955WA0000000913
B1247033653692N00524958WA0000000912
B1247043653692N00524961WA0000000912
B1247053653692N00524964WA0000000912
B1247063653692N00524968WA0000000913
B1247073653692N00524971WA0000000914
B1247083653693N00524974WA0000000914
B1247093653694N00524976WA0000000915
B1247103653695N00524979WA0000000916
B1247113653697N00524981WA0000000918
B1247123653697N00524983WA0000000920
B1247133653698N00524985WA0000000921
B1247153653699N00524988WA0000000924
B1247153653699N00524988WA0000000924
B1247163653699N00524989WA0000000925
B1247173653699N00524991WA0000000926
B1247183653698N00524993WA0000000927
B1247193653697N00524995WA0000000928
B1247203653697N00524997WA0000000929
B1247213653696N00524999WA0000000930
B1247223653696N00525001WA0000000932
B1247233653696N00525004WA0000000933
B1247243653696N00525006WA0000000935
B1247253653696N00525008WA0000000937
B1247263653696N00525010WA0000000939
B1247273653696N00525013WA0000000941
B1247283653695N00525015WA0000000942
B1247293653695N00525017WA0000000944
B1247303653694N00525019WA0000000945
B1247313653694N00525020WA0000000946
B1247323653693N00525022WA0000000947
B1247333653692N00525024WA0000000948
B1247343653690N00525027WA0000000950
B1247353653689N00525030WA0000000953
B1247363653688N00525032WA0000000955
B1247373653688N00525035WA0000000959
B1247383653688N00525038WA0000000962
B1247393653689N00525040WA0000000965
B1247403653689N00525043WA0000000968
B1247413653688N00525045WA0000000970
B1247423653688N00525048WA0000000972
B1247433653689N00525050WA0000000974
B1247443653691N00525053WA0000000976
B1247453653692N00525057WA0000000976
B1247463653693N00525060WA0000000977
B1247473653694N00525064WA0000000977
B1247483653696N00525067WA0000000978
B1247493653698N00525069WA0000000978
B1247503653700N00525073WA0000000978
B1247513653703N00525076WA0000000977
B1247523653706N00525079WA0000000977
B1247533653710N00525082WA0000000977
B1247543653714N00525085WA0000000977
B1247553653719N00525088WA0000000978
B1247563653724N00525091WA0000000979
B1247573653729N00525094WA0000000980
B1247583653732N00525097WA0000000981
B1247593653736N00525099WA0000000983
B1248003653738N00525101WA0000000985
B1248013653740N00525103WA0000000986
B1248023653743N00525105WA0000000987
B1248033653746N00525108WA0000000988
B1248043653748N00525112WA0000000989
B1248053653749N00525116WA0000000990
B1248063653751N00525120WA0000000992
B1248073653752N00525123WA0000000992
B1248083653754N00525126WA0000000993
B1248093653755N00525129WA0000000993
B1248103653757N00525133WA0000000994
B1248113653759N00525136WA0000000994
B1248123653761N00525139WA0000000994
B1248133653764N00525141WA0000000993
B1248143653768N00525143WA0000000993
B1248153653772N00525143WA0000000993
B1248163653776N00525143WA0000000993
B1248173653780N00525141WA0000000993
B1248183653783N00525140WA0000000992
B1248193653787N00525138WA0000000992
B1248203653790N00525136WA0000000991
B1248213653794N00525134WA0000000991
B1248223653798N00525132WA0000000990
B1248233653802N00525129WA0000000991
B1248243653805N00525125WA0000000991
B1248253653808N00525121WA0000000992
B1248263653811N00525117WA0000000993
B1248273653813N00525114WA0000000994
B1248283653815N00525110WA0000000994
B1248293653818N00525107WA0000000995
B1248303653821N00525103WA0000000995
B1248313653824N00525099WA0000000995
B1248323653828N00525094WA0000000996
B1248333653831N00525090WA0000000997
B1248343653834N00525085WA0000000997
B1248353653837N00525081WA0000000997
B1248363653841N00525078WA0000000998
B1248373653844N00525075WA0000000998
B1248383653848N00525072WA0000000998
B1248393653851N00525070WA0000000997
B1248403653856N00525068WA0000000997
B1248413653860N00525066WA0000000997
B1248423653865N00525064WA0000000998
B1248433653869N00525061WA0000000998
B1248443653873N00525059WA0000001000
B1248453653876N00525057WA0000001001
B1248463653880N00525054WA0000001003
B1248473653882N00525050WA0000001005
B1248483653885N00525046WA0000001007
B1248493653887N00525043WA0000001009
B1248503653890N00525039WA0000001011
B1248513653893N00525036WA0000001013
B1248523653896N00525033WA0000001016
B1248533653899N00525031WA0000001019
B1248543653902N00525029WA0000001022
B1248553653905N00525027WA0000001026
B1248563653907N00525025WA0000001029
B1248573653910N00525023WA0000001031
B1248583653914N00525022WA0000001034
B1248593653918N00525021WA0000001037
B1249003653922N00525021WA0000001041
B1249013653926N00525023WA0000001046
B1249023653928N00525026WA0000001050
B1249033653928N00525030WA0000001053
B1249043653927N00525034WA0000001057
B1249053653925N00525038WA0000001060
B1249063653922N00525040WA0000001064
B1249073653918N00525042WA0000001067
B1249083653912N00525043WA0000001069
B1249093653907N00525044WA0000001072
B1249103653900N00525043WA0000001075
B1249113653895N00525041WA0000001078
B1249123653889N00525037WA0000001081
B1249133653884N00525031WA0000001084
B1249143653880N00525023WA0000001087
B1249153653877N00525015WA0000001090
B1249163653876N00525006WA0000001093
B1249173653877N00524999WA0000001096
B1249183653878N00524992WA0000001098
B1249193653880N00524986WA0000001099
B1249203653882N00524981WA0000001101
B1249213653884N00524976WA0000001102
B1249223653886N00524971WA0000001104
B1249233653888N00524967WA0000001107
B1249243653891N00524963WA0000001109
B1249253653894N00524961WA0000001111
B1249263653897N00524959WA0000001113
B1249273653900N00524958WA0000001115
B1249283653903N00524959WA0000001118
B1249293653905N00524960WA0000001120
B1249303653907N00524962WA0000001122
B1249313653907N00524966WA0000001125
B1249323653907N00524969WA0000001128
B1249333653904N00524972WA0000001130
B1249343653901N00524975WA0000001133
B1249353653896N00524977WA0000001136
B1249363653891N00524978WA0000001139
B1249373653885N00524976WA0000001141
B1249383653879N00524974WA0000001144
B1249393653873N00524969WA0000001146
B1249403653867N00524962WA0000001148
B1249413653862N00524954WA0000001150
B1249423653857N00524945WA0000001152
B1249433653854N00524936WA0000001154
B1249443653852N00524927WA0000001155
B1249453653852N00524918WA0000001156
B1249463653852N00524909WA0000001158
B1249473653853N00524901WA0000001160
B1249483653854N00524894WA0000001162
B1249493653856N00524887WA0000001163
B1249503653860N00524881WA0000001165
B1249513653864N00524877WA0000001166
B1249523653868N00524874WA0000001167
B1249533653872N00524871WA0000001169
B1249543653877N00524870WA0000001170
B1249553653881N00524869WA0000001172
B1249563653885N00524869WA0000001174
B1249573653889N00524868WA0000001176
B1249583653893N00524868WA0000001179
B1249593653896N00524867WA0000001181
B1250003653899N00524868WA0000001184
B1250013653902N00524869WA0000001187
B1250023653904N00524871WA0000001190
B1250033653906N00524873WA0000001193
B1250043653908N00524875WA0000001197
B1250053653910N00524876WA0000001201
B1250063653912N00524878WA0000001205
B1250073653913N00524880WA0000001208
B1250083653914N00524883WA0000001211
B1250093653915N00524886WA0000001214
B1250103653915N00524889WA0000001217
B1250113653915N00524893WA0000001220
B1250123653913N00524896WA0000001222
B1250133653910N00524899WA0000001224
B1250143653906N00524900WA0000001226
B1250153653900N00524901WA0000001229
B1250163653894N00524899WA0000001231
B1250173653888N00524896WA0000001234
B1250183653882N00524891WA0000001235
B1250193653876N00524886WA0000001236
B1250203653871N00524879WA0000001238
B1250213653866N00524871WA0000001240
B1250223653863N00524862WA0000001242
B1250233653861N00524853WA0000001242
B1250243653861N00524844WA0000001244
B1250253653863N00524835WA0000001245
B1250263653864N00524827WA0000001246
B1250273653866N00524820WA0000001248
B1250283653868N00524813WA0000001251
B1250293653869N00524808WA0000001254
B1250303653872N00524803WA0000001257
B1250313653874N00524798WA0000001260
B1250323653877N00524794WA0000001263
B1250333653880N00524791WA0000001267
B1250343653884N00524787WA0000001270
B1250353653886N00524784WA0000001274
B1250363653889N00524781WA0000001277
B1250373653892N00524779WA0000001280
B1250383653895N00524777WA0000001283
B1250393653898N00524777WA0000001286
B1250403653901N00524777WA0000001289
B1250413653904N00524779WA0000001292
B1250423653905N00524782WA0000001295
B1250433653906N00524785WA0000001298
B1250443653905N00524787WA0000001301
B1250453653904N00524789WA0000001304
B1250463653902N00524790WA0000001307
B1250473653899N00524792WA0000001309
B1250483653896N00524792WA0000001311
B1250493653892N00524793WA0000001313
B1250503653888N00524793WA0000001315
B1250513653882N00524791WA0000001317
B1250523653877N00524788WA0000001319
B1250533653871N00524783WA0000001321
B1250543653865N00524776WA0000001323
B1250553653861N00524768WA0000001325
B1250563653857N00524758WA0000001327
B1250573653855N00524749WA0000001328
B1250583653854N00524739WA0000001330
B1250593653855N00524729WA0000001332
B1251003653856N00524720WA0000001334
B1251013653858N00524713WA0000001336
B1251023653860N00524706WA0000001339
B1251033653862N00524701WA0000001342
B1251043653865N00524696WA0000001344
B1251053653867N00524691WA0000001345
B1251063653870N00524687WA0000001347
B1251073653874N00524684WA0000001349
B1251083653877N00524681WA0000001350
B1251093653881N00524680WA0000001352
B1251103653885N00524681WA0000001355
B1251113653888N00524683WA0000001357
B1251123653890N00524685WA0000001359
B1251133653892N00524688WA0000001362
B1251143653893N00524691WA0000001365
B1251153653893N00524694WA0000001368
B1251163653893N00524697WA0000001371
B1251173653892N00524700WA0000001374
B1251183653891N00524702WA0000001376
B1251193653889N00524704WA0000001378
B1251203653887N00524706WA0000001380
B1251213653885N00524707WA0000001382
B1251223653883N00524708WA0000001383
B1251233653880N00524710WA0000001384
B1251243653877N00524711WA0000001385
B1251253653872N00524710WA0000001386
B1251263653867N00524709WA0000001387
B1251273653861N00524706WA0000001387
B1251283653856N00524701WA0000001388
B1251293653851N00524694WA0000001389
B1251303653847N00524686WA0000001390
B1251313653844N00524676WA0000001391
B1251323653843N00524665WA0000001391
B1251333653842N00524655WA0000001392
B1251343653843N00524645WA0000001393
B1251353653844N00524636WA0000001394
B1251363653846N00524627WA0000001396
B1251373653848N00524619WA0000001397
B1251383653851N00524612WA0000001397
B1251393653854N00524606WA0000001398
B1251403653858N00524601WA0000001400
B1251413653861N00524597WA0000001402
B1251423653865N00524595WA0000001404
B1251433653869N00524592WA0000001406
B1251443653873N00524590WA0000001408
B1251453653877N00524587WA0000001411
B1251463653881N00524584WA0000001413
B1251473653885N00524583WA0000001415
B1251483653890N00524582WA0000001418
B1251493653894N00524582WA0000001420
B1251503653897N00524583WA0000001423
B1251513653899N00524585WA0000001425
B1251523653900N00524587WA0000001427
B1251533653901N00524590WA0000001429
B1251543653901N00524592WA0000001430
B1251553653901N00524595WA0000001432
B1251563653901N00524598WA0000001433
B1251573653900N00524600WA0000001435
B1251583653898N00524602WA0000001436
B1251593653895N00524603WA0000001437
B1252003653891N00524604WA0000001439
B1252013653888N00524603WA0000001440
B1252023653884N00524602WA0000001442
B1252033653880N00524601WA0000001444
B1252043653875N00524598WA0000001444
B1252053653870N00524595WA0000001446
B1252063653866N00524590WA0000001447
B1252073653862N00524584WA0000001449
B1252083653858N00524576WA0000001450
B1252093653855N00524567WA0000001451
B1252103653854N00524558WA0000001452
B1252113653853N00524548WA0000001452
B1252123653854N00524538WA0000001453
B1252133653856N00524529WA0000001453
B1252143653859N00524519WA0000001454
B1252153653863N00524511WA0000001455
B1252163653867N00524504WA0000001457
B1252173653871N00524498WA0000001459
B1252183653875N00524493WA0000001460
B1252193653879N00524488WA0000001461
B1252203653884N00524485WA0000001462
B1252213653888N00524481WA0000001463
B1252223653894N00524479WA0000001465
B1252233653899N00524478WA0000001466
B1252243653904N00524478WA0000001468
B1252253653908N00524479WA0000001470
B1252263653911N00524480WA0000001471
B1252273653914N00524482WA0000001473
B1252283653916N00524484WA0000001474
B1252293653918N00524486WA0000001475
B1252303653919N00524489WA0000001477
B1252313653921N00524491WA0000001478
B1252323653922N00524494WA0000001479
B1252333653923N00524496WA0000001480
B1252343653923N00524499WA0000001482
B1252353653923N00524502WA0000001484
B1252363653923N00524504WA0000001485
B1252373653922N00524506WA0000001486
B1252383653921N00524508WA0000001487
B1252393653919N00524510WA0000001488
B1252403653916N00524512WA0000001489
B1252413653913N00524513WA0000001490
B1252423653909N00524513WA0000001491
B1252433653905N00524512WA0000001492
B1252443653901N00524510WA0000001493
B1252453653897N00524508WA0000001494
B1252463653894N00524504WA0000001495
B1252473653890N00524500WA0000001495
B1252483653886N00524494WA0000001496
B1252493653883N00524486WA0000001497
B1252503653880N00524477WA0000001498
B1252513653879N00524468WA0000001499
B1252523653879N00524458WA0000001500
B1252533653881N00524449WA0000001501
B1252543653883N00524441WA0000001502
B1252553653886N00524433WA0000001503
B1252563653890N00524426WA0000001504
B1252573653893N00524419WA0000001505
B1252583653897N00524412WA0000001505
B1252593653902N00524405WA0000001506
B1253003653907N00524399WA0000001507
B1253013653913N00524393WA0000001507
B1253023653918N00524389WA0000001508
B1253033653924N00524387WA0000001509
B1253043653929N00524386WA0000001509
B1253053653934N00524386WA0000001510
B1253063653939N00524387WA0000001512
B1253073653944N00524389WA0000001512
B1253083653948N00524390WA0000001513
B1253093653951N00524392WA0000001513
B1253103653954N00524395WA0000001513
B1253113653956N00524399WA0000001513
B1253123653958N00524402WA0000001514
B1253133653961N00524405WA0000001515
B1253143653962N00524407WA0000001516
B1253153653964N00524409WA0000001517
B1253163653965N00524411WA0000001518
B1253173653966N00524413WA0000001519
B1253183653967N00524414WA0000001519
B1253193653967N00524417WA0000001519
B1253203653967N00524419WA0000001519
B1253213653966N00524422WA0000001519
B1253223653965N00524425WA0000001518
B1253233653965N00524428WA0000001519
B1253243653965N00524431WA0000001519
B1253253653965N00524434WA0000001519
B1253263653966N00524437WA0000001520
B1253273653966N00524440WA0000001520
B1253283653966N00524443WA0000001520
B1253293653966N00524446WA0000001520
B1253303653966N00524450WA0000001519
B1253313653967N00524454WA0000001519
B1253323653966N00524458WA0000001519
B1253333653966N00524461WA0000001518
B1253343653966N00524464WA0000001518
B1253353653966N00524468WA0000001517
B1253363653967N00524471WA0000001515
B1253373653966N00524475WA0000001515
B1253383653966N00524479WA0000001514
B1253393653966N00524484WA0000001514
B1253403653967N00524487WA0000001514
B1253413653968N00524490WA0000001513
B1253423653969N00524493WA0000001513
B1253433653969N00524496WA0000001513
B1253443653969N00524501WA0000001513
B1253453653969N00524505WA0000001513
B1253463653969N00524508WA0000001514
B1253473653968N00524511WA0000001515
B1253483653968N00524514WA0000001516
B1253493653967N00524516WA0000001516
B1253503653967N00524519WA0000001515
B1253513653967N00524522WA0000001516
B1253523653967N00524526WA0000001516
B1253533653967N00524529WA0000001516
B1253543653968N00524532WA0000001517
B1253553653968N00524535WA0000001517
B1253563653969N00524538WA0000001518
B1253573653970N00524540WA0000001519
B1253583653971N00524542WA0000001519
B1253593653972N00524544WA0000001520
B1254003653974N00524546WA0000001520
B1254013653975N00524549WA0000001521
B1254023653977N00524551WA0000001522
B1254033653978N00524552WA0000001522
B1254043653980N00524554WA0000001522
B1254053653981N00524555WA0000001522
B1254063653983N00524557WA0000001523
B1254073653984N00524560WA0000001524
B1254083653986N00524563WA0000001524
B1254093653987N00524565WA0000001525
B1254103653987N00524567WA0000001525
B1254113653986N00524570WA0000001526
B1254123653985N00524572WA0000001526
B1254133653984N00524574WA0000001526
B1254143653983N00524575WA0000001525
B1254153653981N00524577WA0000001524
B1254163653980N00524580WA0000001523
B1254173653980N00524582WA0000001522
B1254183653979N00524586WA0000001520
B1254193653979N00524589WA0000001518
B1254203653979N00524592WA0000001516
B1254213653979N00524595WA0000001514
B1254223653980N00524598WA0000001512
B1254233653980N00524602WA0000001511
B1254243653980N00524606WA0000001510
B1254253653981N00524609WA0000001509
B1254263653981N00524612WA0000001508
B1254273653980N00524614WA0000001507
B1254283653980N00524616WA0000001505
B1254293653980N00524619WA0000001503
B1254303653980N00524622WA0000001502
B1254313653980N00524625WA0000001500
B1254323653980N00524629WA0000001498
B1254333653980N00524632WA0000001497
B1254343653979N00524635WA0000001496
B1254353653979N00524638WA0000001495
B1254363653980N00524641WA0000001493
B1254373653980N00524644WA0000001492
B1254383653980N00524647WA0000001491
B1254393653980N00524650WA0000001490
B1254403653980N00524653WA0000001489
B1254413653980N00524656WA0000001488
B1254423653980N00524658WA0000001488
B1254433653981N00524661WA0000001486
B1254443653980N00524664WA0000001485
B1254453653980N00524668WA0000001483
B1254463653980N00524672WA0000001482
B1254473653980N00524676WA0000001481
B1254483653979N00524680WA0000001480
B1254493653979N00524684WA0000001480
B1254503653979N00524688WA0000001479
B1254513653978N00524692WA0000001477
B1254523653978N00524696WA0000001476
B1254533653977N00524700WA0000001474
B1254543653976N00524704WA0000001473
B1254553653975N00524709WA0000001472
B1254563653974N00524712WA0000001470
B1254573653974N00524716WA0000001469
B1254583653974N00524720WA0000001468
B1254593653974N00524723WA0000001466
B1255003653974N00524726WA0000001464
B1255013653973N00524730WA0000001462
B1255023653973N00524733WA0000001460
B1255033653973N00524737WA0000001457
B1255043653973N00524741WA0000001455
B1255053653974N00524745WA0000001452
B1255063653974N00524749WA0000001451
B1255073653974N00524752WA0000001449
B1255083653974N00524756WA0000001447
B1255093653974N00524760WA0000001445
B1255103653973N00524764WA0000001443
B1255113653973N00524767WA0000001441
B1255123653972N00524771WA0000001439
B1255133653971N00524775WA0000001437
B1255143653970N00524778WA0000001435
B1255153653969N00524782WA0000001434
B1255163653968N00524786WA0000001432
B1255173653968N00524790WA0000001431
B1255183653967N00524794WA0000001431
B1255193653967N00524798WA0000001430
B1255203653967N00524802WA0000001429
B1255213653967N00524806WA0000001428
B1255223653967N00524810WA0000001428
B1255233653967N00524814WA0000001427
B1255243653967N00524819WA0000001427
B1255253653968N00524823WA0000001426
B1255263653968N00524828WA0000001426
B1255273653969N00524832WA0000001425
B1255283653970N00524837WA0000001425
B1255293653970N00524841WA0000001425
B1255303653971N00524845WA0000001425
B1255313653971N00524849WA0000001424
B1255323653971N00524853WA0000001423
B1255333653971N00524857WA0000001422
B1255343653971N00524862WA0000001420
B1255353653971N00524866WA0000001419
B1255363653971N00524870WA0000001418
B1255373653971N00524875WA0000001417
B1255383653971N00524878WA0000001416
B1255393653971N00524881WA0000001414
B1255403653970N00524884WA0000001413
B1255413653970N00524888WA0000001411
B1255423653970N00524892WA0000001411
B1255433653970N00524896WA0000001410
B1255443653970N00524900WA0000001410
B1255453653970N00524904WA0000001410
B1255463653970N00524907WA0000001410
B1255473653970N00524910WA0000001409
B1255483653970N00524912WA0000001409
B1255493653970N00524915WA0000001408
B1255503653970N00524919WA0000001406
B1255513653970N00524922WA0000001405
B1255523653969N00524925WA0000001404
B1255533653968N00524929WA0000001402
B1255543653967N00524932WA0000001400
B1255553653967N00524936WA0000001398
B1255563653966N00524940WA0000001397
B1255573653965N00524944WA0000001397
B1255583653964N00524948WA0000001396
B1255593653962N00524952WA0000001395
B1256003653961N00524955WA0000001393
B1256013653959N00524959WA0000001392
B1256023653958N00524963WA0000001391
B1256033653956N00524966WA0000001390
B1256043653954N00524971WA0000001389
B1256053653953N00524975WA0000001388
B1256063653951N00524979WA0000001387
B1256073653949N00524983WA0000001386
B1256083653948N00524988WA0000001385
B1256093653946N00524993WA0000001384
B1256103653945N00524997WA0000001383
B1256113653943N00525002WA0000001382
B1256123653941N00525005WA0000001381
B1256133653939N00525009WA0000001381
B1256143653938N00525011WA0000001380
B1256153653936N00525013WA0000001380
B1256163653934N00525015WA0000001378
B1256173653933N00525018WA0000001377
B1256183653931N00525021WA0000001375
B1256193653929N00525024WA0000001373
B1256203653926N00525027WA0000001371
B1256213653923N00525029WA0000001370
B1256223653921N00525031WA0000001368
B1256233653918N00525034WA0000001366
B1256243653915N00525036WA0000001364
B1256253653913N00525039WA0000001363
B1256263653910N00525041WA0000001361
B1256273653907N00525043WA0000001359
B1256283653905N00525046WA0000001357
B1256293653902N00525049WA0000001355
B1256303653899N00525052WA0000001353
B1256313653896N00525055WA0000001351
B1256323653893N00525058WA0000001350
B1256333653890N00525061WA0000001348
B1256343653886N00525065WA0000001348
B1256353653884N00525067WA0000001347
B1256363653881N00525070WA0000001346
B1256373653879N00525072WA0000001346
B1256383653877N00525075WA0000001345
B1256393653875N00525078WA0000001344
B1256403653872N00525081WA0000001344
B1256413653870N00525083WA0000001344
B1256423653867N00525086WA0000001345
B1256433653864N00525088WA0000001346
B1256443653861N00525090WA0000001346
B1256453653859N00525093WA0000001347
B1256463653856N00525095WA0000001346
B1256473653854N00525098WA0000001347
B1256483653852N00525101WA0000001347
B1256493653850N00525103WA0000001348
B1256503653849N00525106WA0000001348
B1256513653846N00525109WA0000001348
B1256523653844N00525112WA0000001348
B1256533653841N00525115WA0000001349
B1256543653838N00525118WA0000001350
B1256553653835N00525122WA0000001351
B1256563653832N00525126WA0000001353
B1256573653829N00525129WA0000001354
B1256583653826N00525131WA0000001356
B1256593653823N00525134WA0000001357
B1257003653820N00525137WA0000001357
B1257013653817N00525140WA0000001358
B1257023653814N00525144WA0000001358
B1257033653810N00525147WA0000001359
B1257043653807N00525149WA0000001359
B1257053653803N00525151WA0000001360
B1257063653798N00525153WA0000001360
B1257073653793N00525155WA0000001361
B1257083653788N00525158WA0000001362
B1257093653783N00525160WA0000001363
B1257103653778N00525162WA0000001364
B1257113653774N00525163WA0000001364
B1257123653769N00525165WA0000001365
B1257133653764N00525167WA0000001365
B1257143653760N00525169WA0000001366
B1257153653755N00525171WA0000001366
B1257163653751N00525174WA0000001367
B1257173653748N00525176WA0000001367
B1257183653744N00525178WA0000001367
B1257193653740N00525180WA0000001367
B1257203653736N00525183WA0000001367
B1257213653731N00525185WA0000001366
B1257223653726N00525187WA0000001366
B1257233653720N00525190WA0000001366
B1257243653715N00525192WA0000001366
B1257253653710N00525195WA0000001365
B1257263653705N00525197WA0000001365
B1257273653700N00525199WA0000001365
B1257283653695N00525200WA0000001365
B1257293653690N00525201WA0000001364
B1257303653685N00525202WA0000001364
B1257313653680N00525203WA0000001363
B1257323653675N00525204WA0000001363
B1257333653670N00525204WA0000001363
B1257343653665N00525205WA0000001362
B1257353653660N00525206WA0000001361
B1257363653654N00525208WA0000001360
B1257373653648N00525210WA0000001359
B1257383653642N00525212WA0000001358
B1257393653636N00525214WA0000001357
B1257403653631N00525217WA0000001356
B1257413653626N00525220WA0000001354
B1257423653622N00525224WA0000001353
B1257433653617N00525227WA0000001352
B1257443653613N00525231WA0000001350
B1257453653608N00525235WA0000001348
B1257463653603N00525239WA0000001346
B1257473653599N00525244WA0000001344
B1257483653595N00525249WA0000001342
B1257493653591N00525254WA0000001340
B1257503653587N00525260WA0000001337
B1257513653582N00525264WA0000001335
B1257523653577N00525269WA0000001333
B1257533653572N00525273WA0000001331
B1257543653568N00525277WA0000001329
B1257553653564N00525281WA0000001326
B1257563653560N00525285WA0000001324
B1257573653556N00525289WA0000001321
B1257583653553N00525293WA0000001318
B1257593653549N00525298WA0000001315
B1258003653546N00525303WA0000001312
B1258013653542N00525308WA0000001309
B1258023653538N00525313WA0000001306
B1258033653534N00525316WA0000001303
B1258043653530N00525319WA0000001300
B1258053653525N00525323WA0000001297
B1258063653521N00525326WA0000001294
B1258073653516N00525330WA0000001291
B1258083653512N00525335WA0000001289
B1258093653508N00525339WA0000001287
B1258103653505N00525343WA0000001286
B1258113653501N00525347WA0000001284
B1258123653498N00525351WA0000001282
B1258133653495N00525355WA0000001281
B1258143653492N00525360WA0000001279
B1258153653488N00525364WA0000001277
B1258163653484N00525369WA0000001276
B1258173653480N00525373WA0000001275
B1258183653477N00525377WA0000001273
B1258193653473N00525382WA0000001271
B1258203653470N00525386WA0000001269
B1258213653467N00525391WA0000001268
B1258223653463N00525395WA0000001266
B1258233653460N00525400WA0000001264
B1258243653458N00525405WA0000001262
B1258253653456N00525409WA0000001260
B1258263653455N00525414WA0000001258
B1258273653454N00525419WA0000001257
B1258283653454N00525423WA0000001255
B1258293653455N00525427WA0000001253
B1258303653455N00525432WA0000001251
B1258313653456N00525436WA0000001250
B1258323653456N00525440WA0000001248
B1258333653457N00525444WA0000001246
B1258343653459N00525448WA0000001243
B1258353653460N00525452WA0000001242
B1258363653462N00525457WA0000001240
B1258373653463N00525461WA0000001238
B1258383653465N00525465WA0000001237
B1258393653466N00525469WA0000001237
B1258403653467N00525472WA0000001235
B1258413653468N00525476WA0000001233
B1258423653469N00525480WA0000001231
B1258433653470N00525485WA0000001229
B1258443653471N00525489WA0000001228
B1258453653472N00525492WA0000001226
B1258463653473N00525495WA0000001225
B1258473653474N00525498WA0000001223
B1258483653475N00525501WA0000001221
B1258493653476N00525505WA0000001219
B1258503653476N00525509WA0000001217
B1258513653477N00525513WA0000001215
B1258523653477N00525517WA0000001214
B1258533653478N00525521WA0000001213
B1258543653479N00525525WA0000001212
B1258553653479N00525528WA0000001211
B1258563653480N00525531WA0000001210
B1258573653481N00525534WA0000001208
B1258583653481N00525536WA0000001207
B1258593653483N00525539WA0000001205
B1259003653484N00525541WA0000001203
B1259013653485N00525544WA0000001200
B1259023653487N00525547WA0000001199
B1259033653488N00525550WA0000001197
B1259043653490N00525553WA0000001194
B1259053653491N00525555WA0000001192
B1259063653493N00525559WA0000001189
B1259073653494N00525562WA0000001186
B1259083653495N00525565WA0000001184
B1259093653496N00525568WA0000001181
B1259103653497N00525572WA0000001178
B1259113653498N00525575WA0000001175
B1259123653498N00525579WA0000001173
B1259133653499N00525582WA0000001171
B1259143653500N00525586WA0000001169
B1259153653500N00525589WA0000001167
B1259163653501N00525592WA0000001164
B1259173653502N00525595WA0000001161
B1259183653504N00525597WA0000001158
B1259193653505N00525600WA0000001156
B1259203653507N00525604WA0000001154
B1259213653508N00525607WA0000001152
B1259223653510N00525609WA0000001150
B1259233653511N00525612WA0000001148
B1259243653512N00525614WA0000001146
B1259253653513N00525616WA0000001143
B1259263653515N00525619WA0000001141
B1259273653516N00525621WA0000001138
B1259283653519N00525625WA0000001135
B1259293653521N00525627WA0000001133
B1259303653524N00525630WA0000001131
B1259313653526N00525631WA0000001130
B1259323653529N00525632WA0000001127
B1259333653531N00525634WA0000001125
B1259343653534N00525636WA0000001122
B1259353653536N00525638WA0000001120
B1259363653539N00525639WA0000001118
B1259373653542N00525641WA0000001116
B1259383653545N00525642WA0000001113
B1259393653547N00525643WA0000001111
B1259403653550N00525644WA0000001108
B1259413653552N00525646WA0000001105
B1259423653555N00525647WA0000001102
B1259433653558N00525648WA0000001099
B1259443653561N00525648WA0000001096
B1259453653564N00525647WA0000001093
B1259463653567N00525646WA0000001089
B1259473653571N00525645WA0000001085
B1259483653574N00525643WA0000001082
B1259493653578N00525641WA0000001078
B1259503653580N00525637WA0000001074
B1259513653583N00525633WA0000001070
B1259523653586N00525629WA0000001066
B1259533653589N00525624WA0000001061
B1259543653592N00525619WA0000001057
B1259553653596N00525615WA0000001053
B1259563653599N00525611WA0000001049
B1259573653601N00525606WA0000001045
B1259583653604N00525601WA0000001041
B1259593653607N00525598WA0000001037
B1300003653610N00525595WA0000001033
B1300013653613N00525591WA0000001030
B1300023653616N00525587WA0000001025
B1300033653619N00525582WA0000001021
B1300043653623N00525577WA0000001018
B1300053653627N00525572WA0000001014
B1300063653630N00525568WA0000001011
B1300073653634N00525564WA0000001008
B1300083653637N00525559WA0000001005
B1300093653640N00525555WA0000001002
B1300103653643N00525550WA0000001000
B1300113653646N00525545WA0000000997
B1300123653649N00525539WA0000000994
B1300133653652N00525534WA0000000992
B1300143653654N00525528WA0000000988
B1300153653657N00525522WA0000000985
B1300163653660N00525516WA0000000983
B1300173653664N00525510WA0000000980
B1300183653667N00525504WA0000000978
B1300193653670N00525498WA0000000975
B1300203653673N00525492WA0000000972
B1300213653676N00525486WA0000000970
B1300223653680N00525480WA0000000967
B1300233653683N00525474WA0000000964
B1300243653686N00525468WA0000000962
B1300253653690N00525462WA0000000960
B1300263653693N00525456WA0000000958
B1300273653697N00525450WA0000000957
B1300283653701N00525445WA0000000956
B1300293653704N00525439WA0000000955
B1300303653708N00525433WA0000000954
B1300313653711N00525427WA0000000953
B1300323653714N00525421WA0000000951
B1300333653717N00525415WA0000000950
B1300343653721N00525408WA0000000949
B1300353653724N00525402WA0000000948
B1300363653727N00525396WA0000000946
B1300373653731N00525390WA0000000945
B1300383653734N00525384WA0000000943
B1300393653738N00525378WA0000000942
B1300403653742N00525371WA0000000942
B1300413653745N00525364WA0000000941
B1300423653748N00525357WA0000000940
B1300433653752N00525350WA0000000939
B1300443653755N00525343WA0000000939
B1300453653758N00525335WA0000000938
B1300463653761N00525328WA0000000938
B1300473653763N00525321WA0000000938
B1300483653766N00525314WA0000000937
B1300493653768N00525308WA0000000937
B1300503653771N00525301WA0000000937
B1300513653773N00525294WA0000000936
B1300523653775N00525286WA0000000936
B1300533653777N00525279WA0000000935
B1300543653779N00525271WA0000000935
B1300553653781N00525263WA0000000935
B1300563653783N00525255WA0000000935
B1300573653785N00525248WA0000000935
B1300583653787N00525241WA0000000936
B1300593653789N00525235WA0000000936
B1301003653791N00525228WA0000000935
B1301013653792N00525221WA0000000935
B1301023653793N00525213WA0000000935
B1301033653794N00525204WA0000000936
B1301043653795N00525196WA0000000936
B1301053653797N00525189WA0000000937
B1301063653799N00525182WA0000000937
B1301073653801N00525175WA0000000938
B1301083653803N00525168WA0000000938
B1301093653806N00525162WA0000000940
B1301103653808N00525155WA0000000941
B1301113653811N00525149WA0000000942
B1301123653813N00525143WA0000000942
B1301133653815N00525137WA0000000942
B1301143653816N00525130WA0000000942
B1301153653818N00525124WA0000000943
B1301163653818N00525117WA0000000943
B1301173653818N00525110WA0000000945
B1301183653817N00525104WA0000000946
B1301193653815N00525098WA0000000947
B1301203653814N00525092WA0000000949
B1301213653812N00525085WA0000000950
B1301223653811N00525078WA0000000952
B1301233653811N00525070WA0000000954
B1301243653812N00525062WA0000000956
B1301253653814N00525054WA0000000959
B1301263653816N00525047WA0000000962
B1301273653818N00525041WA0000000965
B1301283653821N00525036WA0000000969
B1301293653824N00525031WA0000000972
B1301303653827N00525028WA0000000976
B1301313653830N00525026WA0000000980
B1301323653834N00525024WA0000000985
B1301333653837N00525024WA0000000989
B1301343653840N00525024WA0000000994
B1301353653842N00525025WA0000001000
B1301363653845N00525027WA0000001005
B1301373653847N00525029WA0000001009
B1301383653849N00525031WA0000001013
B1301393653852N00525033WA0000001018
B1301403653855N00525036WA0000001022
B1301413653858N00525038WA0000001026
B1301423653861N00525039WA0000001031
B1301433653863N00525040WA0000001034
B1301443653865N00525041WA0000001038
B1301453653867N00525042WA0000001041
B1301463653869N00525043WA0000001043
B1301473653871N00525045WA0000001046
B1301483653872N00525047WA0000001049
B1301493653872N00525050WA0000001051
B1301503653872N00525053WA0000001054
B1301513653871N00525056WA0000001057
B1301523653869N00525059WA0000001060
B1301533653866N00525062WA0000001064
B1301543653862N00525065WA0000001067
B1301553653858N00525066WA0000001071
B1301563653853N00525065WA0000001075
B1301573653848N00525063WA0000001079
B1301583653843N00525060WA0000001082
B1301593653838N00525055WA0000001085
B1302003653834N00525048WA0000001088
B1302013653830N00525041WA0000001090
B1302023653828N00525032WA0000001092
B1302033653827N00525024WA0000001094
B1302043653826N00525015WA0000001096
B1302053653827N00525007WA0000001097
B1302063653828N00524999WA0000001099
B1302073653830N00524991WA0000001100
B1302083653833N00524984WA0000001102
B1302093653837N00524977WA0000001104
B1302103653841N00524971WA0000001107
B1302113653845N00524966WA0000001109
B1302123653849N00524961WA0000001111
B1302133653853N00524958WA0000001113
B1302143653857N00524955WA0000001115
B1302153653862N00524952WA0000001117
B1302163653866N00524951WA0000001119
B1302173653870N00524951WA0000001122
B1302183653874N00524952WA0000001124
B1302193653877N00524954WA0000001127
B1302203653879N00524957WA0000001130
B1302213653880N00524960WA0000001133
B1302223653882N00524962WA0000001137
B1302233653882N00524965WA0000001140
B1302243653882N00524968WA0000001143
B1302253653880N00524970WA0000001146
B1302263653877N00524973WA0000001149
B1302273653873N00524974WA0000001153
B1302283653868N00524975WA0000001157
B1302293653863N00524975WA0000001161
B1302303653858N00524973WA0000001165
B1302313653853N00524970WA0000001169
B1302323653848N00524966WA0000001173
B1302333653843N00524962WA0000001177
B1302343653840N00524956WA0000001181
B1302353653837N00524950WA0000001185
B1302363653834N00524944WA0000001189
B1302373653832N00524937WA0000001192
B1302383653831N00524929WA0000001195
B1302393653830N00524920WA0000001198
B1302403653831N00524911WA0000001200
B1302413653833N00524903WA0000001203
B1302423653836N00524896WA0000001205
B1302433653841N00524889WA0000001209
B1302443653845N00524884WA0000001210
B1302453653850N00524879WA0000001212
B1302463653855N00524875WA0000001213
B1302473653860N00524872WA0000001214
B1302483653865N00524869WA0000001216
B1302493653870N00524868WA0000001218
B1302503653874N00524869WA0000001220
B1302513653878N00524870WA0000001221
B1302523653880N00524872WA0000001223
B1302533653883N00524875WA0000001224
B1302543653884N00524879WA0000001225
B1302553653884N00524883WA0000001226
B1302563653883N00524887WA0000001226
B1302573653881N00524892WA0000001227
B1302583653877N00524896WA0000001227
B1302593653873N00524899WA0000001228
B1303003653869N00524900WA0000001229
B1303013653864N00524902WA0000001230
B1303023653859N00524903WA0000001230
B1303033653854N00524904WA0000001230
B1303043653849N00524904WA0000001230
B1303053653843N00524904WA0000001231
B1303063653837N00524905WA0000001233
B1303073653831N00524904WA0000001234
B1303083653825N00524903WA0000001236
B1303093653820N00524901WA0000001238
B1303103653815N00524899WA0000001241
B1303113653810N00524897WA0000001245
B1303123653806N00524895WA0000001248
B1303133653801N00524894WA0000001252
B1303143653796N00524892WA0000001255
B1303153653792N00524889WA0000001257
B1303163653787N00524885WA0000001260
B1303173653782N00524879WA0000001262
B1303183653779N00524872WA0000001266
B1303193653777N00524864WA0000001269
B1303203653776N00524857WA0000001273
B1303213653775N00524850WA0000001277
B1303223653774N00524844WA0000001279
B1303233653773N00524838WA0000001282
B1303243653771N00524832WA0000001285
B1303253653771N00524826WA0000001288
B1303263653771N00524820WA0000001290
B1303273653773N00524814WA0000001293
B1303283653776N00524809WA0000001295
B1303293653779N00524804WA0000001298
B1303303653783N00524800WA0000001301
B1303313653785N00524796WA0000001304
B1303323653788N00524793WA0000001307
B1303333653790N00524791WA0000001309
B1303343653792N00524791WA0000001310
B1303353653795N00524791WA0000001313
B1303363653798N00524791WA0000001317
B1303373653801N00524792WA0000001320
B1303383653802N00524793WA0000001323
B1303393653804N00524794WA0000001326
B1303403653804N00524796WA0000001329
B1303413653805N00524797WA0000001331
B1303423653807N00524799WA0000001334
B1303433653808N00524801WA0000001337
B1303443653808N00524803WA0000001341
B1303453653808N00524806WA0000001344
B1303463653807N00524808WA0000001348
B1303473653806N00524810WA0000001351
B1303483653804N00524812WA0000001354
B1303493653803N00524815WA0000001358
B1303503653801N00524818WA0000001362
B1303513653798N00524822WA0000001366
B1303523653795N00524825WA0000001370
B1303533653791N00524826WA0000001375
B1303543653786N00524827WA0000001378
B1303553653781N00524827WA0000001382
B1303563653776N00524826WA0000001384
B1303573653770N00524824WA0000001387
B1303583653765N00524822WA0000001390
B1303593653759N00524819WA0000001392
B1304003653754N00524815WA0000001395
B1304013653750N00524810WA0000001398
B1304023653747N00524805WA0000001400
B1304033653744N00524799WA0000001403
B1304043653742N00524794WA0000001405
B1304053653740N00524789WA0000001407
B1304063653739N00524783WA0000001409
B1304073653738N00524777WA0000001410
B1304083653737N00524770WA0000001411
B1304093653736N00524763WA0000001412
B1304103653735N00524755WA0000001414
B1304113653735N00524747WA0000001415
B1304123653736N00524740WA0000001416
B1304133653738N00524732WA0000001418
B1304143653740N00524725WA0000001419
B1304153653743N00524719WA0000001421
B1304163653746N00524714WA0000001423
B1304173653751N00524709WA0000001424
B1304183653755N00524705WA0000001425
B1304193653760N00524702WA0000001428
B1304203653764N00524699WA0000001430
B1304213653768N00524698WA0000001432
B1304223653772N00524697WA0000001435
B1304233653774N00524698WA0000001437
B1304243653776N00524699WA0000001438
B1304253653777N00524702WA0000001439
B1304263653777N00524707WA0000001440
B1304273653777N00524711WA0000001442
B1304283653775N00524715WA0000001444
B1304293653773N00524719WA0000001446
B1304303653771N00524722WA0000001449
B1304313653770N00524724WA0000001452
B1304323653768N00524728WA0000001454
B1304333653767N00524732WA0000001456
B1304343653766N00524736WA0000001459
B1304353653764N00524740WA0000001461
B1304363653762N00524744WA0000001463
B1304373653759N00524748WA0000001465
B1304383653756N00524751WA0000001465
B1304393653752N00524755WA0000001466
B1304403653749N00524758WA0000001467
B1304413653746N00524761WA0000001467
B1304423653744N00524765WA0000001468
B1304433653743N00524768WA0000001469
B1304443653742N00524771WA0000001469
B1304453653741N00524773WA0000001469
B1304463653739N00524775WA0000001467
B1304473653737N00524778WA0000001466
B1304483653734N00524780WA0000001465
B1304493653731N00524783WA0000001464
B1304503653728N00524786WA0000001463
B1304513653726N00524788WA0000001462
B1304523653724N00524790WA0000001461
B1304533653722N00524793WA0000001460
B1304543653720N00524797WA0000001458
B1304553653718N00524800WA0000001456
B1304563653717N00524804WA0000001455
B1304573653716N00524807WA0000001454
B1304583653714N00524811WA0000001452
B1304593653713N00524814WA0000001451
B1305003653712N00524817WA0000001449
B1305013653710N00524821WA0000001447
B1305023653709N00524824WA0000001445
B1305033653707N00524828WA0000001444
B1305043653706N00524831WA0000001442
B1305053653705N00524835WA0000001440
B1305063653704N00524838WA0000001438
B1305073653702N00524842WA0000001437
B1305083653701N00524845WA0000001435
B1305093653700N00524849WA0000001434
B1305103653698N00524852WA0000001433
B1305113653696N00524856WA0000001432
B1305123653695N00524859WA0000001431
B1305133653693N00524861WA0000001430
B1305143653691N00524864WA0000001429
B1305153653690N00524867WA0000001428
B1305163653688N00524870WA0000001426
B1305173653688N00524873WA0000001425
B1305183653688N00524877WA0000001423
B1305193653688N00524881WA0000001421
B1305203653688N00524885WA0000001419
B1305213653689N00524889WA0000001417
B1305223653690N00524894WA0000001416
B1305233653691N00524899WA0000001415
B1305243653692N00524904WA0000001414
B1305253653692N00524908WA0000001413
B1305263653692N00524911WA0000001412
B1305273653693N00524915WA0000001411
B1305283653694N00524918WA0000001410
B1305293653695N00524922WA0000001409
B1305303653696N00524926WA0000001408
B1305313653697N00524929WA0000001408
B1305323653698N00524933WA0000001407
B1305333653700N00524936WA0000001407
B1305343653701N00524939WA0000001408
B1305353653701N00524942WA0000001408
B1305363653702N00524945WA0000001408
B1305373653702N00524947WA0000001408
B1305383653702N00524950WA0000001408
B1305393653703N00524953WA0000001408
B1305403653703N00524956WA0000001409
B1305413653704N00524959WA0000001409
B1305423653704N00524962WA0000001409
B1305433653705N00524964WA0000001410
B1305453653707N00524970WA0000001413
B1305463653707N00524972WA0000001414
B1305463653707N00524972WA0000001414
B1305473653707N00524975WA0000001415
B1305483653707N00524977WA0000001416
B1305493653707N00524979WA0000001417
B1305503653706N00524982WA0000001418
B1305513653706N00524985WA0000001419
B1305523653705N00524987WA0000001421
B1305533653704N00524990WA0000001422
B1305543653704N00524992WA0000001422
B1305553653703N00524994WA0000001422
B1305563653703N00524996WA0000001422
B1305573653702N00524999WA0000001422
B1305583653700N00525001WA0000001422
B1305593653699N00525004WA0000001422
B1306003653697N00525006WA0000001422
B1306013653695N00525007WA0000001421
B1306023653692N00525009WA0000001421
B1306033653689N00525011WA0000001420
B1306043653685N00525013WA0000001420
B1306053653681N00525015WA0000001421
B1306063653677N00525016WA0000001421
B1306073653674N00525017WA0000001421
B1306083653670N00525018WA0000001422
B1306093653666N00525019WA0000001422
B1306103653663N00525020WA0000001422
B1306113653659N00525021WA0000001421
B1306123653655N00525023WA0000001421
B1306133653651N00525024WA0000001421
B1306143653646N00525025WA0000001421
B1306153653642N00525026WA0000001420
B1306163653638N00525028WA0000001419
B1306173653634N00525030WA0000001417
B1306183653629N00525032WA0000001416
B1306193653625N00525035WA0000001414
B1306203653620N00525037WA0000001413
B1306213653616N00525039WA0000001411
B1306223653612N00525041WA0000001410
B1306233653608N00525043WA0000001409
B1306243653604N00525044WA0000001407
B1306253653600N00525045WA0000001405
B1306263653597N00525047WA0000001403
B1306273653593N00525048WA0000001400
B1306283653589N00525049WA0000001398
B1306293653585N00525051WA0000001396
B1306303653580N00525052WA0000001394
B1306313653576N00525052WA0000001392
B1306323653571N00525053WA0000001391
B1306333653567N00525053WA0000001389
B1306343653563N00525053WA0000001388
B1306353653559N00525054WA0000001386
B1306363653554N00525054WA0000001384
B1306373653549N00525055WA0000001382
B1306383653544N00525055WA0000001380
B1306393653539N00525055WA0000001378
B1306403653534N00525055WA0000001377
B1306413653529N00525055WA0000001375
B1306423653524N00525054WA0000001373
B1306433653518N00525052WA0000001372
B1306443653513N00525051WA0000001370
B1306453653507N00525050WA0000001368
B1306463653502N00525049WA0000001366
B1306473653496N00525047WA0000001365
B1306483653490N00525046WA0000001363
B1306493653484N00525045WA0000001362
B1306503653479N00525045WA0000001361
B1306513653473N00525044WA0000001359
B1306523653468N00525044WA0000001358
B1306533653462N00525043WA0000001356
B1306543653456N00525043WA0000001354
B1306553653450N00525042WA0000001353
B1306563653444N00525042WA0000001351
B1306573653439N00525041WA0000001349
B1306583653434N00525041WA0000001347
B1306593653429N00525040WA0000001345
B1307003653424N00525040WA0000001342
B1307013653418N00525040WA0000001340
B1307023653413N00525041WA0000001338
B1307033653407N00525042WA0000001336
B1307043653402N00525042WA0000001334
B1307053653397N00525043WA0000001332
B1307063653392N00525044WA0000001330
B1307073653387N00525046WA0000001328
B1307083653382N00525047WA0000001326
B1307093653376N00525049WA0000001324
B1307103653370N00525051WA0000001322
B1307113653365N00525053WA0000001321
B1307123653360N00525055WA0000001320
B1307133653354N00525057WA0000001318
B1307143653348N00525059WA0000001316
B1307153653342N00525060WA0000001315
B1307163653336N00525062WA0000001314
B1307173653330N00525064WA0000001313
B1307183653324N00525064WA0000001312
B1307193653318N00525064WA0000001312
B1307203653312N00525064WA0000001313
B1307213653306N00525063WA0000001313
B1307223653300N00525063WA0000001313
B1307233653294N00525063WA0000001313
B1307243653288N00525063WA0000001314
B1307253653282N00525062WA0000001314
B1307263653276N00525062WA0000001314
B1307273653269N00525062WA0000001314
B1307283653263N00525062WA0000001314
B1307293653257N00525062WA0000001314
B1307303653251N00525063WA0000001313
B1307313653245N00525063WA0000001313
B1307323653238N00525064WA0000001312
B1307333653232N00525064WA0000001312
B1307343653226N00525064WA0000001312
B1307353653220N00525065WA0000001311
B1307363653215N00525066WA0000001310
B1307373653210N00525067WA0000001310
B1307383653205N00525068WA0000001308
B1307393653200N00525069WA0000001307
B1307403653195N00525071WA0000001306
B1307413653190N00525072WA0000001305
B1307423653185N00525074WA0000001304
B1307433653180N00525077WA0000001302
B1307443653175N00525080WA0000001301
B1307453653171N00525082WA0000001300
B1307463653166N00525084WA0000001299
B1307473653161N00525086WA0000001298
B1307483653157N00525088WA0000001297
B1307493653153N00525090WA0000001296
B1307503653149N00525092WA0000001295
B1307513653145N00525093WA0000001293
B1307523653141N00525095WA0000001291
B1307533653137N00525098WA0000001290
B1307543653132N00525100WA0000001288
B1307553653128N00525103WA0000001286
B1307563653123N00525106WA0000001284
B1307573653120N00525108WA0000001283
B1307583653116N00525111WA0000001282
B1307593653112N00525113WA0000001281
B1308003653108N00525116WA0000001280
B1308013653105N00525118WA0000001279
B1308023653101N00525120WA0000001277
B1308033653097N00525123WA0000001275
B1308043653092N00525125WA0000001274
B1308053653087N00525128WA0000001272
B1308063653083N00525131WA0000001271
B1308073653078N00525134WA0000001270
B1308083653074N00525138WA0000001269
B1308093653070N00525143WA0000001267
B1308103653067N00525148WA0000001266
B1308113653063N00525154WA0000001264
B1308123653060N00525160WA0000001263
B1308133653058N00525166WA0000001262
B1308143653056N00525173WA0000001261
B1308153653055N00525179WA0000001260
B1308163653054N00525185WA0000001259
B1308173653053N00525191WA0000001257
B1308183653052N00525196WA0000001256
B1308193653050N00525201WA0000001254
B1308203653048N00525207WA0000001252
B1308213653047N00525213WA0000001250
B1308223653045N00525218WA0000001249
B1308233653042N00525224WA0000001247
B1308243653040N00525229WA0000001246
B1308253653037N00525234WA0000001244
B1308263653033N00525239WA0000001242
B1308273653029N00525243WA0000001240
B1308283653025N00525247WA0000001238
B1308293653021N00525251WA0000001237
B1308303653017N00525255WA0000001235
B1308313653012N00525258WA0000001233
B1308323653008N00525262WA0000001231
B1308333653003N00525265WA0000001229
B1308343652998N00525269WA0000001226
B1308353652994N00525273WA0000001224
B1308363652989N00525277WA0000001222
B1308373652984N00525280WA0000001221
B1308393652975N00525289WA0000001217
B1308403652970N00525293WA0000001215
B1308413652965N00525298WA0000001214
B1308423652961N00525302WA0000001212
B1308433652957N00525306WA0000001210
B1308443652953N00525310WA0000001209
B1308453652950N00525316WA0000001207
B1308463652948N00525321WA0000001205
B1308473652946N00525327WA0000001203
B1308483652945N00525333WA0000001201
B1308493652944N00525339WA0000001199
B1308503652943N00525344WA0000001197
B1308513652942N00525350WA0000001195
B1308523652941N00525355WA0000001192
B1308533652941N00525361WA0000001190
B1308543652941N00525367WA0000001187
B1308553652941N00525373WA0000001186
B1308563652940N00525380WA0000001183
B1308573652939N00525386WA0000001181
B1308583652936N00525392WA0000001179
B1308593652934N00525398WA0000001178
B1309003652932N00525404WA0000001177
B1309013652930N00525409WA0000001174
B1309023652928N00525415WA0000001172
B1309033652926N00525420WA0000001170
B1309043652923N00525426WA0000001169
B1309053652920N00525432WA0000001168
B1309063652918N00525438WA0000001167
B1309073652915N00525444WA0000001165
B1309083652913N00525449WA0000001163
B1309093652910N00525455WA0000001161
B1309103652908N00525461WA0000001159
B1309113652905N00525467WA0000001157
B1309123652902N00525473WA0000001156
B1309133652899N00525478WA0000001155
B1309143652897N00525482WA0000001154
B1309153652894N00525487WA0000001152
B1309163652891N00525491WA0000001150
B1309173652887N00525496WA0000001147
B1309183652883N00525502WA0000001145
B1309193652880N00525507WA0000001143
B1309203652877N00525512WA0000001142
B1309213652874N00525517WA0000001141
B1309223652872N00525521WA0000001140
B1309233652870N00525524WA0000001139
B1309233652870N00525524WA0000001139
B1309253652866N00525529WA0000001137
B1309263652864N00525533WA0000001136
B1309273652862N00525536WA0000001135
B1309283652860N00525540WA0000001134
B1309283652860N00525540WA0000001134
B1309293652858N00525544WA0000001133
B1309303652856N00525546WA0000001133
B1309313652854N00525549WA0000001132
B1309323652850N00525550WA0000001131
B1309333652846N00525551WA0000001129
B1309343652841N00525551WA0000001128
B1309353652835N00525550WA0000001128
B1309363652830N00525547WA0000001127
B1309373652826N00525543WA0000001127
B1309383652823N00525539WA0000001126
B1309393652820N00525533WA0000001125
B1309403652817N00525527WA0000001125
B1309413652815N00525520WA0000001125
B1309423652812N00525513WA0000001124
B1309433652811N00525506WA0000001123
B1309443652811N00525499WA0000001122
B1309453652812N00525491WA0000001122
B1309463652815N00525486WA0000001122
B1309473652818N00525481WA0000001121
B1309483652822N00525479WA0000001121
B1309493652826N00525478WA0000001120
B1309503652829N00525477WA0000001119
B1309513652833N00525478WA0000001117
B1309523652836N00525479WA0000001116
B1309533652840N00525480WA0000001115
B1309543652842N00525481WA0000001114
B1309553652845N00525483WA0000001113
B1309563652848N00525485WA0000001112
B1309573652850N00525488WA0000001111
B1309583652852N00525491WA0000001110
B1309593652854N00525494WA0000001109
B1310003652856N00525497WA0000001108
B1310013652858N00525499WA0000001107
B1310023652861N00525501WA0000001105
B1310033652864N00525501WA0000001104
B1310043652869N00525501WA0000001103
B1310053652873N00525500WA0000001102
B1310063652877N00525497WA0000001100
B1310073652881N00525494WA0000001098
B1310083652885N00525491WA0000001095
B1310093652889N00525487WA0000001093
B1310103652894N00525484WA0000001091
B1310113652898N00525480WA0000001089
B1310123652902N00525477WA0000001087
B1310133652906N00525474WA0000001084
B1310143652910N00525471WA0000001082
B1310153652915N00525467WA0000001079
B1310163652920N00525464WA0000001077
B1310173652924N00525460WA0000001075
B1310183652929N00525457WA0000001073
B1310193652934N00525454WA0000001071
B1310203652938N00525452WA0000001070
B1310213652942N00525449WA0000001069
B1310223652946N00525446WA0000001067
B1310233652950N00525442WA0000001066
B1310243652953N00525438WA0000001064
B1310253652957N00525434WA0000001062
B1310263652960N00525431WA0000001061
B1310273652964N00525427WA0000001060
B1310283652968N00525423WA0000001058
B1310293652971N00525419WA0000001057
B1310303652974N00525415WA0000001056
B1310313652978N00525411WA0000001054
B1310323652981N00525408WA0000001053
B1310333652985N00525405WA0000001052
B1310343652988N00525402WA0000001051
B1310353652991N00525399WA0000001050
B1310363652994N00525396WA0000001049
B1310373652997N00525393WA0000001047
B1310383652999N00525390WA0000001045
B1310393653002N00525387WA0000001043
B1310403653005N00525384WA0000001041
B1310413653008N00525381WA0000001039
B1310423653012N00525378WA0000001038
B1310433653015N00525375WA0000001036
B1310443653019N00525372WA0000001034
B1310453653022N00525370WA0000001032
B1310463653026N00525367WA0000001029
B1310473653030N00525365WA0000001027
B1310483653034N00525362WA0000001024
B1310493653037N00525359WA0000001022
B1310503653041N00525357WA0000001020
B1310513653045N00525354WA0000001018
B1310523653049N00525352WA0000001015
B1310533653053N00525349WA0000001012
B1310543653057N00525345WA0000001009
B1310553653061N00525342WA0000001006
B1310563653065N00525339WA0000001004
B1310573653069N00525336WA0000001001
B1310583653073N00525334WA0000000998
B1310593653077N00525331WA0000000994
B1311003653081N00525327WA0000000991
B1311013653085N00525324WA0000000988
B1311023653090N00525321WA0000000986
B1311033653094N00525318WA0000000984
B1311043653098N00525315WA0000000982
B1311053653102N00525312WA0000000979
B1311063653106N00525308WA0000000976
B1311073653111N00525304WA0000000974
B1311083653115N00525300WA0000000972
B1311093653120N00525297WA0000000970
B1311103653124N00525293WA0000000968
B1311113653128N00525290WA0000000966
B1311123653132N00525287WA0000000963
B1311133653137N00525284WA0000000961
B1311143653142N00525281WA0000000959
B1311153653146N00525278WA0000000957
B1311163653152N00525275WA0000000955
B1311173653157N00525272WA0000000953
B1311183653161N00525269WA0000000951
B1311193653166N00525267WA0000000949
B1311203653170N00525264WA0000000947
B1311213653174N00525261WA0000000945
B1311223653178N00525259WA0000000943
B1311233653183N00525256WA0000000940
B1311243653188N00525253WA0000000937
B1311253653192N00525250WA0000000935
B1311263653197N00525247WA0000000933
B1311273653202N00525245WA0000000931
B1311283653206N00525242WA0000000929
B1311293653210N00525240WA0000000927
B1311303653214N00525237WA0000000925
B1311313653219N00525234WA0000000923
B1311323653223N00525231WA0000000922
B1311333653228N00525228WA0000000920
B1311343653232N00525225WA0000000920
B1311353653236N00525222WA0000000919
B1311363653240N00525218WA0000000918
B1311373653243N00525215WA0000000917
B1311383653247N00525212WA0000000916
B1311393653251N00525209WA0000000914
B1311403653255N00525206WA0000000913
B1311413653260N00525202WA0000000912
B1311423653264N00525199WA0000000911
B1311433653268N00525195WA0000000910
B1311443653272N00525191WA0000000908
B1311453653275N00525187WA0000000906
B1311463653279N00525184WA0000000904
B1311473653283N00525180WA0000000902
B1311483653288N00525177WA0000000901
B1311493653293N00525174WA0000000900
B1311503653297N00525171WA0000000899
B1311513653301N00525168WA0000000897
B1311523653305N00525164WA0000000896
B1311533653310N00525161WA0000000894
B1311543653315N00525159WA0000000894
B1311553653319N00525156WA0000000893
B1311563653324N00525153WA0000000892
B1311573653327N00525151WA0000000891
B1311583653331N00525150WA0000000890
B1311593653334N00525149WA0000000889
B1312003653337N00525148WA0000000888
B1312013653340N00525147WA0000000886
B1312023653344N00525146WA0000000884
B1312033653349N00525145WA0000000883
B1312043653353N00525144WA0000000882
B1312053653358N00525142WA0000000881
B1312063653362N00525140WA0000000880
B1312073653367N00525137WA0000000880
B1312083653372N00525135WA0000000879
B1312093653376N00525133WA0000000879
B1312103653381N00525132WA0000000879
B1312113653386N00525131WA0000000878
B1312123653391N00525130WA0000000877
B1312133653395N00525129WA0000000877
B1312143653400N00525127WA0000000876
B1312153653405N00525127WA0000000875
B1312163653410N00525126WA0000000875
B1312173653414N00525127WA0000000875
B1312183653419N00525127WA0000000875
B1312193653423N00525128WA0000000876
B1312203653428N00525130WA0000000876
B1312213653432N00525131WA0000000877
B1312223653436N00525132WA0000000878
B1312233653441N00525134WA0000000879
B1312243653446N00525134WA0000000880
B1312253653450N00525134WA0000000880
B1312263653454N00525134WA0000000880
B1312273653458N00525134WA0000000880
B1312283653462N00525134WA0000000880
B1312293653467N00525134WA0000000880
B1312303653471N00525135WA0000000880
B1312313653475N00525135WA0000000881
B1312323653479N00525136WA0000000882
B1312333653483N00525137WA0000000884
B1312343653487N00525138WA0000000885
B1312353653491N00525139WA0000000887
B1312363653495N00525140WA0000000889
B1312373653499N00525141WA0000000891
B1312383653502N00525143WA0000000892
B1312393653505N00525144WA0000000895
B1312403653508N00525145WA0000000896
B1312413653511N00525146WA0000000897
B1312423653514N00525147WA0000000897
B1312433653518N00525147WA0000000898
B1312443653522N00525147WA0000000899
B1312453653527N00525146WA0000000900
B1312463653531N00525145WA0000000901
B1312473653535N00525144WA0000000903
B1312483653539N00525143WA0000000904
B1312493653542N00525142WA0000000906
B1312503653545N00525142WA0000000907
B1312513653549N00525141WA0000000908
B1312523653553N00525140WA0000000910
B1312533653557N00525139WA0000000912
B1312543653561N00525138WA0000000914
B1312553653565N00525138WA0000000916
B1312563653569N00525137WA0000000919
B1312573653573N00525136WA0000000920
B1312583653577N00525135WA0000000923
B1312593653581N00525132WA0000000925
B1313003653586N00525131WA0000000927
B1313013653590N00525130WA0000000929
B1313023653594N00525129WA0000000931
B1313033653598N00525129WA0000000933
B1313043653602N00525129WA0000000934
B1313053653606N00525128WA0000000935
B1313063653610N00525126WA0000000937
B1313073653615N00525126WA0000000939
B1313083653620N00525125WA0000000941
B1313093653625N00525126WA0000000943
B1313103653629N00525126WA0000000944
B1313113653634N00525126WA0000000947
B1313123653639N00525127WA0000000948
B1313133653644N00525128WA0000000950
B1313143653648N00525129WA0000000951
B1313153653653N00525131WA0000000952
B1313163653657N00525134WA0000000954
B1313173653661N00525136WA0000000956
B1313183653665N00525138WA0000000958
B1313193653670N00525139WA0000000960
B1313203653675N00525141WA0000000963
B1313213653679N00525141WA0000000967
B1313223653683N00525142WA0000000969
B1313233653687N00525144WA0000000972
B1313243653690N00525145WA0000000974
B1313253653692N00525147WA0000000976
B1313263653693N00525149WA0000000977
B1313273653695N00525151WA0000000979
B1313283653696N00525152WA0000000980
B1313293653699N00525153WA0000000981
B1313303653702N00525154WA0000000981
B1313313653705N00525155WA0000000981
B1313323653708N00525156WA0000000981
B1313333653710N00525157WA0000000982
B1313343653713N00525159WA0000000982
B1313353653715N00525161WA0000000983
B1313363653715N00525164WA0000000983
B1313373653715N00525166WA0000000983
B1313383653713N00525169WA0000000984
B1313393653711N00525170WA0000000984
B1313403653708N00525170WA0000000984
B1313413653705N00525169WA0000000985
B1313423653701N00525167WA0000000985
B1313433653697N00525164WA0000000986
B1313443653694N00525160WA0000000987
B1313453653690N00525156WA0000000987
B1313463653686N00525153WA0000000988
B1313473653682N00525150WA0000000990
B1313483653678N00525146WA0000000991
B1313493653675N00525143WA0000000993
B1313503653671N00525140WA0000000995
B1313513653667N00525136WA0000000997
B1313523653663N00525132WA0000000999
B1313533653659N00525128WA0000001000
B1313543653654N00525124WA0000001002
B1313553653649N00525120WA0000001003
B1313563653645N00525116WA0000001005
B1313573653640N00525113WA0000001006
B1313583653636N00525109WA0000001008
B1313593653631N00525106WA0000001009
B1314003653626N00525102WA0000001010
B1314013653622N00525098WA0000001011
B1314023653617N00525094WA0000001012
B1314033653612N00525090WA0000001012
B1314043653608N00525086WA0000001012
B1314053653603N00525082WA0000001013
B1314063653597N00525079WA0000001013
B1314073653592N00525076WA0000001013
B1314083653587N00525072WA0000001014
B1314093653582N00525069WA0000001015
B1314103653577N00525067WA0000001016
B1314113653572N00525064WA0000001016
B1314123653567N00525062WA0000001017
B1314133653562N00525060WA0000001018
B1314143653556N00525057WA0000001019
B1314153653551N00525055WA0000001020
B1314163653546N00525053WA0000001021
B1314173653541N00525051WA0000001022
B1314183653537N00525049WA0000001022
B1314193653532N00525047WA0000001022
B1314203653527N00525045WA0000001023
B1314213653522N00525044WA0000001023
B1314223653517N00525042WA0000001024
B1314233653512N00525042WA0000001024
B1314243653508N00525041WA0000001024
B1314253653503N00525041WA0000001024
B1314263653498N00525041WA0000001025
B1314273653494N00525041WA0000001025
B1314283653489N00525041WA0000001026
B1314293653484N00525041WA0000001026
B1314303653480N00525041WA0000001026
B1314313653476N00525041WA0000001026
B1314323653471N00525040WA0000001025
B1314333653465N00525039WA0000001025
B1314343653459N00525038WA0000001025
B1314353653454N00525036WA0000001025
B1314363653449N00525034WA0000001025
B1314373653445N00525033WA0000001025
B1314383653441N00525033WA0000001025
B1314393653438N00525035WA0000001025
B1314403653435N00525037WA0000001024
B1314413653434N00525041WA0000001024
B1314423653434N00525044WA0000001023
B1314433653436N00525047WA0000001022
B1314443653440N00525047WA0000001022
B1314453653445N00525046WA0000001021
B1314463653449N00525043WA0000001020
B1314473653453N00525041WA0000001019
B1314483653458N00525038WA0000001018
B1314493653462N00525035WA0000001017
B1314503653466N00525032WA0000001016
B1314513653471N00525029WA0000001015
B1314523653475N00525025WA0000001013
B1314533653479N00525021WA0000001012
B1314543653483N00525017WA0000001011
B1314553653488N00525013WA0000001010
B1314563653493N00525010WA0000001010
B1314573653498N00525007WA0000001010
B1314583653503N00525005WA0000001010
B1314593653507N00525004WA0000001010
B1315003653511N00525004WA0000001010
B1315013653515N00525005WA0000001010
B1315023653518N00525006WA0000001010
B1315033653521N00525008WA0000001011
B1315043653523N00525010WA0000001012
B1315053653524N00525011WA0000001013
B1315063653526N00525014WA0000001014
B1315073653528N00525016WA0000001015
B1315083653529N00525018WA0000001016
B1315093653530N00525020WA0000001017
B1315103653532N00525023WA0000001018
B1315113653533N00525025WA0000001018
B1315123653535N00525027WA0000001020
B1315133653536N00525029WA0000001020
B1315143653536N00525031WA0000001020
B1315153653537N00525033WA0000001021
B1315163653538N00525035WA0000001021
B1315173653538N00525037WA0000001021
B1315183653539N00525039WA0000001021
B1315193653540N00525041WA0000001021
B1315203653541N00525043WA0000001021
B1315213653542N00525046WA0000001022
B1315223653544N00525048WA0000001023
B1315233653547N00525049WA0000001025
B1315243653549N00525051WA0000001027
B1315253653552N00525052WA0000001028
B1315263653554N00525053WA0000001029
B1315273653557N00525054WA0000001030
B1315283653560N00525055WA0000001031
B1315293653563N00525057WA0000001032
B1315303653566N00525058WA0000001034
B1315313653569N00525060WA0000001035
B1315323653572N00525062WA0000001037
B1315333653575N00525064WA0000001039
B1315343653577N00525066WA0000001042
B1315353653580N00525068WA0000001045
B1315363653583N00525069WA0000001047
B1315373653585N00525070WA0000001050
B1315383653588N00525071WA0000001051
B1315393653590N00525073WA0000001053
B1315403653593N00525074WA0000001053
B1315413653595N00525076WA0000001054
B1315423653598N00525078WA0000001054
B1315433653601N00525080WA0000001054
B1315443653604N00525082WA0000001054
B1315453653607N00525084WA0000001054
B1315463653609N00525086WA0000001054
B1315473653612N00525088WA0000001054
B1315483653614N00525090WA0000001053
B1315493653616N00525092WA0000001053
B1315503653619N00525093WA0000001053
B1315513653622N00525094WA0000001052
B1315523653625N00525096WA0000001051
B1315533653627N00525098WA0000001051
B1315543653630N00525100WA0000001051
B1315553653632N00525103WA0000001051
B1315563653634N00525105WA0000001051
B1315573653637N00525107WA0000001052
B1315583653640N00525108WA0000001051
B1315593653642N00525109WA0000001051
B1316003653645N00525110WA0000001050
B1316013653647N00525111WA0000001050
B1316023653650N00525114WA0000001050
B1316033653654N00525115WA0000001050
B1316043653657N00525117WA0000001050
B1316053653660N00525118WA0000001050
B1316063653664N00525118WA0000001051
B1316073653668N00525118WA0000001052
B1316083653672N00525118WA0000001052
B1316093653676N00525118WA0000001053
B1316103653680N00525118WA0000001054
B1316113653684N00525118WA0000001056
B1316123653688N00525117WA0000001056
B1316133653691N00525117WA0000001056
B1316143653695N00525116WA0000001056
B1316153653699N00525116WA0000001058
B1316163653703N00525116WA0000001059
B1316173653707N00525116WA0000001060
B1316183653710N00525116WA0000001060
B1316193653713N00525116WA0000001061
B1316203653715N00525116WA0000001061
B1316213653718N00525117WA0000001061
B1316223653720N00525119WA0000001062
B1316233653722N00525121WA0000001063
B1316243653723N00525124WA0000001064
B1316253653725N00525125WA0000001066
B1316263653727N00525127WA0000001068
B1316273653729N00525129WA0000001071
B1316283653730N00525131WA0000001073
B1316293653732N00525133WA0000001076
B1316303653732N00525134WA0000001078
B1316313653733N00525135WA0000001081
B1316323653733N00525137WA0000001082
B1316333653733N00525139WA0000001084
B1316343653733N00525142WA0000001085
B1316353653733N00525145WA0000001086
B1316363653734N00525149WA0000001088
B1316373653734N00525152WA0000001090
B1316383653734N00525156WA0000001091
B1316393653734N00525160WA0000001091
B1316403653735N00525164WA0000001093
B1316413653736N00525168WA0000001094
B1316423653736N00525172WA0000001096
B1316433653737N00525176WA0000001097
B1316443653738N00525180WA0000001099
B1316453653740N00525182WA0000001101
B1316463653742N00525183WA0000001103
B1316473653743N00525185WA0000001104
B1316483653744N00525188WA0000001106
B1316493653745N00525192WA0000001108
B1316503653746N00525196WA0000001108
B1316513653747N00525200WA0000001110
B1316523653748N00525202WA0000001110
B1316533653751N00525204WA0000001111
B1316543653753N00525206WA0000001112
B1316553653756N00525209WA0000001112
B1316563653758N00525212WA0000001112
B1316573653760N00525214WA0000001113
B1316583653762N00525217WA0000001114
B1316593653764N00525220WA0000001115
B1317003653766N00525223WA0000001115
B1317013653768N00525226WA0000001115
B1317023653770N00525230WA0000001115
B1317033653772N00525232WA0000001114
B1317043653774N00525235WA0000001114
B1317053653775N00525238WA0000001113
B1317063653777N00525241WA0000001113
B1317073653778N00525245WA0000001113
B1317083653780N00525248WA0000001113
B1317093653782N00525252WA0000001113
B1317103653783N00525257WA0000001114
B1317113653785N00525261WA0000001115
B1317123653786N00525265WA0000001116
B1317133653787N00525269WA0000001117
B1317143653788N00525272WA0000001117
B1317153653789N00525276WA0000001117
B1317163653790N00525280WA0000001118
B1317173653791N00525284WA0000001118
B1317183653791N00525287WA0000001118
B1317193653792N00525291WA0000001117
B1317203653792N00525295WA0000001117
B1317213653793N00525298WA0000001115
B1317223653794N00525302WA0000001114
B1317233653795N00525306WA0000001113
B1317243653796N00525310WA0000001112
B1317253653797N00525313WA0000001110
B1317263653798N00525317WA0000001110
B1317273653799N00525320WA0000001109
B1317283653799N00525324WA0000001109
B1317293653800N00525327WA0000001108
B1317303653801N00525330WA0000001108
B1317313653803N00525333WA0000001107
B1317323653804N00525335WA0000001108
B1317333653805N00525338WA0000001108
B1317343653806N00525340WA0000001107
B1317353653807N00525342WA0000001107
B1317363653808N00525345WA0000001107
B1317373653810N00525347WA0000001107
B1317383653812N00525350WA0000001107
B1317393653813N00525352WA0000001107
B1317403653814N00525354WA0000001107
B1317413653815N00525356WA0000001107
B1317423653816N00525359WA0000001107
B1317433653817N00525361WA0000001108
B1317443653819N00525363WA0000001108
B1317453653820N00525365WA0000001107
B1317463653821N00525366WA0000001107
B1317473653823N00525368WA0000001106
B1317483653825N00525370WA0000001105
B1317493653827N00525373WA0000001105
B1317503653830N00525374WA0000001105
B1317513653832N00525376WA0000001105
B1317523653834N00525377WA0000001105
B1317533653836N00525378WA0000001104
B1317543653838N00525379WA0000001103
B1317553653840N00525380WA0000001102
B1317563653842N00525381WA0000001100
B1317573653844N00525382WA0000001099
B1317583653847N00525383WA0000001097
B1317593653849N00525383WA0000001095
B1318003653852N00525384WA0000001094
B1318013653855N00525383WA0000001093
B1318023653858N00525382WA0000001090
B1318033653861N00525380WA0000001088
B1318043653864N00525379WA0000001085
B1318053653868N00525378WA0000001083
B1318063653871N00525378WA0000001081
B1318073653873N00525377WA0000001078
B1318083653877N00525375WA0000001076
B1318093653880N00525372WA0000001073
B1318103653883N00525369WA0000001070
B1318113653886N00525366WA0000001067
B1318123653889N00525363WA0000001064
B1318133653893N00525360WA0000001061
B1318143653896N00525357WA0000001059
B1318153653900N00525353WA0000001058
B1318163653904N00525349WA0000001056
B1318173653907N00525346WA0000001053
B1318183653910N00525343WA0000001050
B1318193653914N00525340WA0000001047
B1318203653917N00525337WA0000001044
B1318213653920N00525334WA0000001042
B1318223653923N00525331WA0000001040
B1318233653926N00525328WA0000001038
B1318243653928N00525325WA0000001037
B1318253653931N00525322WA0000001036
B1318263653933N00525320WA0000001035
B1318273653935N00525317WA0000001032
B1318283653937N00525314WA0000001031
B1318293653940N00525310WA0000001029
B1318303653942N00525306WA0000001028
B1318313653945N00525301WA0000001028
B1318323653948N00525296WA0000001028
B1318333653950N00525292WA0000001027
B1318343653951N00525288WA0000001026
B1318353653953N00525284WA0000001025
B1318363653955N00525280WA0000001025
B1318373653957N00525276WA0000001024
B1318383653959N00525272WA0000001024
B1318393653961N00525269WA0000001024
B1318403653964N00525265WA0000001024
B1318413653966N00525262WA0000001024
B1318423653968N00525259WA0000001025
B1318433653970N00525256WA0000001026
B1318443653972N00525254WA0000001027
B1318453653974N00525252WA0000001027
B1318463653976N00525251WA0000001028
B1318473653978N00525250WA0000001030
B1318483653980N00525250WA0000001032
B1318493653982N00525251WA0000001033
B1318503653983N00525252WA0000001034
B1318513653984N00525254WA0000001034
B1318523653986N00525255WA0000001034
B1318533653988N00525257WA0000001034
B1318543653990N00525259WA0000001033
B1318553653992N00525262WA0000001032
B1318563653995N00525265WA0000001031
B1318573653997N00525269WA0000001031
B1318583653998N00525274WA0000001031
B1318593653998N00525278WA0000001031
B1319003653997N00525281WA0000001032
B1319013653996N00525284WA0000001032
B1319023653996N00525287WA0000001032
B1319033653995N00525291WA0000001032
B1319043653994N00525295WA0000001032
B1319053653993N00525300WA0000001033
B1319063653992N00525304WA0000001032
B1319073653990N00525308WA0000001032
B1319083653989N00525312WA0000001031
B1319093653987N00525316WA0000001030
B1319103653984N00525320WA0000001029
B1319113653982N00525323WA0000001028
B1319123653980N00525326WA0000001027
B1319133653977N00525329WA0000001025
B1319143653974N00525332WA0000001023
B1319153653971N00525336WA0000001022
B1319163653967N00525339WA0000001021
B1319173653963N00525342WA0000001020
B1319183653959N00525344WA0000001019
B1319193653955N00525346WA0000001018
B1319203653951N00525348WA0000001016
B1319213653948N00525350WA0000001015
B1319223653944N00525353WA0000001014
B1319233653940N00525355WA0000001014
B1319243653936N00525358WA0000001013
B1319253653933N00525360WA0000001012
B1319263653930N00525363WA0000001011
B1319273653926N00525365WA0000001010
B1319283653922N00525368WA0000001009
B1319293653918N00525370WA0000001007
B1319303653914N00525372WA0000001006
B1319313653910N00525374WA0000001004
B1319323653906N00525377WA0000001003
B1319333653901N00525379WA0000001002
B1319343653897N00525382WA0000001000
B1319353653893N00525385WA0000000999
B1319363653889N00525387WA0000000997
B1319373653884N00525389WA0000000995
B1319383653879N00525390WA0000000993
B1319393653873N00525390WA0000000990
B1319403653868N00525390WA0000000987
B1319413653863N00525389WA0000000984
B1319423653857N00525388WA0000000980
B1319433653851N00525386WA0000000977
B1319443653846N00525384WA0000000975
B1319453653840N00525381WA0000000972
B1319463653834N00525378WA0000000969
B1319473653829N00525374WA0000000966
B1319483653823N00525371WA0000000964
B1319493653818N00525366WA0000000961
B1319503653812N00525362WA0000000959
B1319513653807N00525357WA0000000957
B1319523653803N00525353WA0000000955
B1319533653798N00525348WA0000000952
B1319543653793N00525344WA0000000950
B1319553653788N00525338WA0000000948
B1319563653784N00525332WA0000000946
B1319573653780N00525327WA0000000945
B1319583653776N00525321WA0000000943
B1319593653772N00525316WA0000000942
B1320003653768N00525310WA0000000940
B1320013653764N00525304WA0000000939
B1320023653760N00525298WA0000000938
B1320033653755N00525292WA0000000937
B1320043653751N00525286WA0000000936
B1320053653747N00525280WA0000000935
B1320063653742N00525274WA0000000934
B1320073653738N00525268WA0000000933
B1320083653734N00525262WA0000000932
B1320093653730N00525256WA0000000932
B1320103653726N00525250WA0000000931
B1320113653721N00525244WA0000000930
B1320123653718N00525238WA0000000930
B1320133653714N00525231WA0000000929
B1320143653710N00525225WA0000000929
B1320153653706N00525219WA0000000928
B1320163653703N00525212WA0000000928
B1320173653700N00525206WA0000000927
B1320183653696N00525199WA0000000926
B1320193653693N00525192WA0000000926
B1320203653691N00525185WA0000000925
B1320213653689N00525178WA0000000925
B1320223653687N00525170WA0000000924
B1320233653685N00525163WA0000000923
B1320243653682N00525155WA0000000922
B1320253653680N00525148WA0000000921
B1320263653677N00525141WA0000000920
B1320273653674N00525134WA0000000919
B1320283653670N00525127WA0000000918
B1320293653666N00525121WA0000000918
B1320303653661N00525115WA0000000917
B1320313653656N00525110WA0000000916
B1320323653651N00525104WA0000000916
B1320333653645N00525099WA0000000916
B1320343653640N00525094WA0000000916
B1320353653634N00525090WA0000000916
B1320363653629N00525086WA0000000916
B1320373653623N00525082WA0000000917
B1320383653618N00525077WA0000000917
B1320393653614N00525071WA0000000917
B1320403653610N00525064WA0000000916
B1320413653607N00525057WA0000000915
B1320423653604N00525049WA0000000914
B1320433653603N00525041WA0000000912
B1320443653602N00525033WA0000000912
B1320453653602N00525025WA0000000911
B1320463653603N00525017WA0000000911
B1320473653606N00525010WA0000000911
B1320483653608N00525004WA0000000911
B1320493653611N00524998WA0000000912
B1320503653614N00524993WA0000000911
B1320513653617N00524988WA0000000911
B1320523653621N00524984WA0000000910
B1320533653625N00524979WA0000000910
B1320543653629N00524976WA0000000910
B1320553653633N00524973WA0000000910
B1320563653638N00524972WA0000000909
B1320573653642N00524971WA0000000909
B1320583653646N00524970WA0000000909
B1320593653650N00524969WA0000000908
B1321003653654N00524969WA0000000908
B1321013653659N00524970WA0000000908
B1321023653663N00524972WA0000000908
B1321033653667N00524974WA0000000909
B1321043653670N00524976WA0000000910
B1321053653674N00524977WA0000000911
B1321063653677N00524979WA0000000913
B1321073653680N00524980WA0000000914
B1321083653683N00524981WA0000000916
B1321093653685N00524982WA0000000916
B1321103653687N00524984WA0000000917
B1321113653690N00524985WA0000000917
B1321123653694N00524986WA0000000917
B1321133653697N00524988WA0000000918
B1321143653699N00524989WA0000000919
B1321153653702N00524989WA0000000920
B1321163653705N00524989WA0000000920
B1321173653709N00524990WA0000000921
B1321183653712N00524989WA0000000922
B1321193653716N00524989WA0000000923
B1321203653719N00524988WA0000000923
B1321213653723N00524987WA0000000924
B1321223653728N00524987WA0000000925
B1321233653732N00524987WA0000000926
B1321243653735N00524989WA0000000928
B1321253653738N00524990WA0000000930
B1321263653739N00524991WA0000000932
B1321273653741N00524992WA0000000935
B1321283653742N00524994WA0000000938
B1321293653743N00524996WA0000000939
B1321303653744N00524999WA0000000940
B1321313653744N00525001WA0000000941
B1321323653742N00525002WA0000000941
B1321333653739N00525002WA0000000941
B1321343653735N00525002WA0000000940
B1321353653730N00525000WA0000000939
B1321363653725N00524998WA0000000938
B1321373653719N00524995WA0000000936
B1321383653713N00524991WA0000000936
B1321393653707N00524986WA0000000936
B1321403653702N00524981WA0000000936
B1321413653697N00524977WA0000000937
B1321423653692N00524972WA0000000938
B1321433653687N00524969WA0000000939
B1321443653682N00524966WA0000000940
B1321453653677N00524963WA0000000940
B1321463653672N00524962WA0000000941
B1321473653667N00524960WA0000000941
B1321483653662N00524958WA0000000941
B1321493653658N00524957WA0000000941
B1321503653653N00524955WA0000000941
B1321513653648N00524953WA0000000941
B1321523653643N00524952WA0000000942
B1321533653637N00524952WA0000000943
B1321543653633N00524951WA0000000944
B1321553653628N00524951WA0000000945
B1321573653620N00524952WA0000000945
B1321583653616N00524953WA0000000946
B1321593653613N00524955WA0000000947
B1322003653611N00524957WA0000000947
B1322013653609N00524959WA0000000947
B1322023653608N00524962WA0000000947
B1322033653607N00524965WA0000000947
B1322043653608N00524968WA0000000947
B1322053653610N00524970WA0000000947
B1322063653612N00524972WA0000000947
B1322073653615N00524972WA0000000946
B1322083653618N00524971WA0000000946
B1322093653622N00524969WA0000000944
B1322103653626N00524966WA0000000944
B1322113653630N00524963WA0000000943
B1322123653633N00524959WA0000000942
B1322133653637N00524955WA0000000941
B1322143653640N00524951WA0000000941
B1322153653644N00524948WA0000000941
B1322163653648N00524946WA0000000941
B1322173653652N00524943WA0000000941
B1322183653656N00524941WA0000000941
B1322193653660N00524941WA0000000941
B1322203653663N00524941WA0000000942
B1322213653665N00524942WA0000000943
B1322223653668N00524943WA0000000944
B1322233653670N00524944WA0000000945
B1322243653672N00524946WA0000000946
B1322253653674N00524948WA0000000946
B1322263653675N00524950WA0000000947
B1322273653677N00524951WA0000000947
B1322283653679N00524953WA0000000947
B1322293653680N00524955WA0000000947
B1322303653682N00524957WA0000000947
B1322313653684N00524959WA0000000947
B1322323653685N00524960WA0000000947
B1322333653688N00524961WA0000000946
B1322343653691N00524961WA0000000946
B1322353653694N00524961WA0000000946
B1322363653698N00524961WA0000000947
B1322373653701N00524960WA0000000947
B1322383653704N00524959WA0000000947
B1322393653708N00524958WA0000000947
B1322403653711N00524957WA0000000948
B1322413653715N00524956WA0000000949
B1322423653718N00524955WA0000000950
B1322433653721N00524955WA0000000950
B1322443653722N00524957WA0000000951
B1322453653722N00524959WA0000000952
B1322463653721N00524962WA0000000953
B1322473653719N00524964WA0000000954
B1322483653718N00524966WA0000000954
B1322493653716N00524969WA0000000954
B1322503653713N00524971WA0000000953
B1322513653710N00524973WA0000000953
B1322523653705N00524975WA0000000953
B1322533653701N00524977WA0000000953
B1322543653696N00524979WA0000000953
B1322553653692N00524980WA0000000952
B1322563653688N00524981WA0000000952
B1322573653683N00524983WA0000000951
B1322583653679N00524984WA0000000950
B1322593653674N00524985WA0000000950
B1323003653670N00524985WA0000000949
B1323013653665N00524986WA0000000948
B1323023653660N00524986WA0000000946
B1323033653654N00524986WA0000000945
B1323043653649N00524986WA0000000944
B1323053653643N00524986WA0000000943
B1323063653638N00524985WA0000000943
B1323063653638N00524985WA0000000943
B1323073653632N00524985WA0000000942
B1323083653627N00524984WA0000000942
B1323093653621N00524984WA0000000942
B1323103653615N00524983WA0000000942
B1323113653610N00524982WA0000000942
B1323123653605N00524980WA0000000942
B1323133653599N00524978WA0000000941
B1323143653593N00524976WA0000000941
B1323153653587N00524975WA0000000940
B1323163653581N00524974WA0000000940
B1323173653575N00524973WA0000000940
B1323183653570N00524973WA0000000940
B1323193653564N00524972WA0000000939
B1323203653559N00524971WA0000000938
B1323213653554N00524971WA0000000938
B1323223653548N00524972WA0000000938
B1323233653544N00524975WA0000000938
B1323243653541N00524978WA0000000938
B1323253653539N00524981WA0000000938
B1323263653540N00524985WA0000000938
B1323273653541N00524987WA0000000938
B1323283653544N00524989WA0000000938
B1323293653548N00524987WA0000000938
B1323303653552N00524985WA0000000938
B1323313653554N00524983WA0000000939
B1323323653557N00524981WA0000000940
B1323333653559N00524980WA0000000940
B1323343653562N00524979WA0000000941
B1323353653566N00524977WA0000000941
B1323363653569N00524976WA0000000942
B1323373653571N00524976WA0000000943
B1323383653573N00524976WA0000000943
B1323393653575N00524976WA0000000944
B1323403653578N00524976WA0000000944
B1323413653581N00524975WA0000000944
B1323423653584N00524972WA0000000945
B1323433653587N00524970WA0000000946
B1323443653589N00524968WA0000000947
B1323453653592N00524968WA0000000948
B1323463653595N00524967WA0000000949
B1323473653597N00524968WA0000000950
B1323483653599N00524969WA0000000951
B1323493653602N00524969WA0000000951
B1323503653604N00524969WA0000000951
B1323513653607N00524967WA0000000952
B1323523653609N00524966WA0000000952
B1323533653612N00524965WA0000000951
B1323543653615N00524964WA0000000951
B1323553653618N00524962WA0000000951
B1323563653620N00524960WA0000000953
B1323573653623N00524959WA0000000953
B1323583653625N00524958WA0000000954
B1323593653626N00524957WA0000000954
B1324003653628N00524956WA0000000954
B1324013653630N00524955WA0000000954
B1324023653633N00524955WA0000000954
B1324033653636N00524956WA0000000954
B1324043653638N00524956WA0000000955
B1324053653641N00524956WA0000000956
B1324063653644N00524955WA0000000956
B1324073653648N00524955WA0000000957
B1324083653652N00524955WA0000000958
B1324093653656N00524955WA0000000960
B1324103653660N00524955WA0000000961
B1324113653664N00524956WA0000000963
B1324123653667N00524957WA0000000964
B1324133653671N00524958WA0000000965
B1324143653674N00524960WA0000000967
B1324153653678N00524963WA0000000969
B1324163653681N00524965WA0000000970
B1324173653684N00524967WA0000000972
B1324183653686N00524969WA0000000974
B1324193653687N00524971WA0000000976
B1324203653688N00524973WA0000000978
B1324213653689N00524976WA0000000979
B1324223653690N00524979WA0000000982
B1324233653691N00524982WA0000000984
B1324243653692N00524985WA0000000986
B1324253653693N00524988WA0000000987
B1324263653694N00524992WA0000000988
B1324273653695N00524996WA0000000989
B1324283653697N00525000WA0000000989
B1324293653697N00525004WA0000000989
B1324303653698N00525008WA0000000989
B1324313653698N00525011WA0000000990
B1324323653697N00525014WA0000000989
B1324333653696N00525017WA0000000989
B1324343653695N00525020WA0000000988
B1324353653694N00525023WA0000000987
B1324363653692N00525027WA0000000987
B1324373653691N00525030WA0000000986
B1324383653689N00525034WA0000000985
B1324393653687N00525037WA0000000985
B1324403653685N00525040WA0000000983
B1324413653683N00525043WA0000000982
B1324423653680N00525047WA0000000981
B1324433653678N00525050WA0000000980
B1324443653675N00525054WA0000000979
B1324453653672N00525057WA0000000977
B1324463653668N00525060WA0000000975
B1324473653664N00525062WA0000000973
B1324483653660N00525064WA0000000971
B1324493653656N00525065WA0000000969
B1324503653651N00525066WA0000000967
B1324513653646N00525067WA0000000965
B1324523653641N00525067WA0000000964
B1324533653636N00525065WA0000000962
B1324543653630N00525062WA0000000960
B1324553653625N00525057WA0000000958
B1324563653620N00525051WA0000000956
B1324573653617N00525042WA0000000954
B1324583653615N00525034WA0000000953
B1324593653614N00525024WA0000000952
B1325003653614N00525016WA0000000950
B1325013653616N00525009WA0000000947
B1325023653620N00525003WA0000000945
B1325033653624N00524999WA0000000942
B1325043653628N00524997WA0000000941
B1325053653632N00524997WA0000000940
B1325063653634N00524998WA0000000939
B1325073653636N00525001WA0000000938
B1325083653637N00525005WA0000000937
B1325093653635N00525009WA0000000936
B1325103653632N00525013WA0000000935
B1325113653628N00525015WA0000000935
B1325123653623N00525015WA0000000934
B1325133653617N00525013WA0000000932
B1325143653611N00525008WA0000000931
B1325153653606N00525001WA0000000929
B1325163653603N00524992WA0000000927
B1325173653602N00524984WA0000000925
B1325183653603N00524976WA0000000922
B1325193653606N00524971WA0000000921
B1325203653610N00524968WA0000000920
B1325213653614N00524966WA0000000922
B1325223653618N00524964WA0000000924
B1325233653622N00524962WA0000000925
B1325243653625N00524960WA0000000927
B1325253653629N00524959WA0000000928
B1325263653632N00524958WA0000000928
B1325273653636N00524958WA0000000927
B1325283653639N00524958WA0000000927
B1325293653642N00524958WA0000000927
B1325303653645N00524958WA0000000927
B1325313653648N00524957WA0000000928
B1325323653651N00524956WA0000000928
B1325333653653N00524954WA0000000928
B1325343653656N00524953WA0000000928
B1325353653659N00524951WA0000000927
B1325363653663N00524949WA0000000927
B1325373653667N00524948WA0000000928
B1325383653671N00524947WA0000000929
B1325393653674N00524946WA0000000929
B1325403653677N00524946WA0000000930
B1325413653680N00524946WA0000000931
B1325423653683N00524946WA0000000931
B1325433653686N00524946WA0000000932
B1325443653688N00524948WA0000000932
B1325453653689N00524950WA0000000933
B1325463653690N00524953WA0000000933
B1325473653689N00524957WA0000000933
B1325483653688N00524960WA0000000933
B1325493653684N00524963WA0000000932
B1325503653680N00524965WA0000000932
B1325513653676N00524966WA0000000932
B1325523653671N00524967WA0000000933
B1325533653667N00524968WA0000000932
B1325543653662N00524968WA0000000931
B1325553653657N00524968WA0000000929
B1325563653651N00524968WA0000000928
B1325573653646N00524968WA0000000927
B1325583653640N00524968WA0000000927
B1325593653634N00524967WA0000000926
B1326003653629N00524966WA0000000925
B1326013653624N00524967WA0000000925
B1326023653619N00524970WA0000000924
B1326033653616N00524975WA0000000924
B1326043653613N00524980WA0000000924
B1326053653611N00524986WA0000000924
B1326063653611N00524990WA0000000924
B1326073653613N00524993WA0000000924
B1326083653616N00524994WA0000000926
B1326093653619N00524994WA0000000927
B1326103653622N00524994WA0000000928
B1326113653626N00524992WA0000000928
B1326123653630N00524991WA0000000928
B1326133653634N00524988WA0000000928
B1326143653638N00524985WA0000000927
B1326153653641N00524983WA0000000927
B1326163653645N00524981WA0000000927
B1326173653648N00524979WA0000000926
B1326183653651N00524976WA0000000924
B1326193653654N00524972WA0000000923
B1326203653657N00524968WA0000000922
B1326213653660N00524964WA0000000921
B1326223653663N00524961WA0000000920
B1326233653666N00524959WA0000000919
B1326243653671N00524958WA0000000918
B1326253653675N00524958WA0000000918
B1326263653678N00524957WA0000000919
B1326273653682N00524956WA0000000918
B1326283653686N00524956WA0000000918
B1326293653689N00524958WA0000000918
B1326303653693N00524960WA0000000918
B1326313653696N00524964WA0000000919
B1326323653697N00524968WA0000000919
B1326333653698N00524971WA0000000919
B1326343653698N00524975WA0000000918
B1326353653696N00524980WA0000000918
B1326363653694N00524985WA0000000918
B1326373653691N00524989WA0000000916
B1326383653688N00524992WA0000000916
B1326393653685N00524996WA0000000915
B1326403653681N00524999WA0000000914
B1326413653678N00525001WA0000000912
B1326423653674N00525004WA0000000912
B1326433653670N00525007WA0000000912
B1326443653666N00525010WA0000000912
B1326453653662N00525012WA0000000912
B1326463653659N00525014WA0000000911
B1326473653654N00525015WA0000000909
B1326483653650N00525015WA0000000907
B1326493653645N00525015WA0000000906
B1326503653639N00525014WA0000000905
B1326513653633N00525012WA0000000905
B1326523653628N00525011WA0000000906
B1326533653623N00525009WA0000000907
B1326543653618N00525007WA0000000908
B1326553653613N00525005WA0000000909
B1326563653608N00525001WA0000000911
B1326573653603N00524998WA0000000912
B1326583653598N00524996WA0000000913
B1326593653592N00524994WA0000000914
B1327003653586N00524994WA0000000914
B1327013653581N00524995WA0000000915
B1327023653576N00524997WA0000000915
B1327033653573N00524999WA0000000915
B1327043653570N00525002WA0000000915
B1327053653567N00525005WA0000000914
B1327063653564N00525008WA0000000914
B1327073653563N00525012WA0000000913
B1327083653564N00525016WA0000000912
B1327093653567N00525019WA0000000910
B1327103653571N00525020WA0000000908
B1327113653574N00525020WA0000000907
B1327123653578N00525019WA0000000905
B1327133653581N00525017WA0000000902
B1327143653585N00525016WA0000000899
B1327153653590N00525016WA0000000898
B1327163653594N00525017WA0000000897
B1327173653597N00525018WA0000000895
B1327183653599N00525020WA0000000894
B1327193653602N00525022WA0000000893
B1327203653604N00525025WA0000000892
B1327213653606N00525027WA0000000890
B1327223653609N00525031WA0000000889
B1327233653612N00525034WA0000000888
B1327243653615N00525038WA0000000887
B1327253653617N00525040WA0000000887
B1327263653620N00525043WA0000000885
B1327273653623N00525045WA0000000884
B1327283653626N00525046WA0000000883
B1327293653628N00525048WA0000000881
B1327303653631N00525050WA0000000880
B1327313653634N00525054WA0000000880
B1327323653637N00525057WA0000000880
B1327333653639N00525060WA0000000880
B1327343653641N00525063WA0000000881
B1327353653643N00525066WA0000000881
B1327363653644N00525069WA0000000881
B1327373653646N00525072WA0000000881
B1327383653649N00525075WA0000000880
B1327393653652N00525078WA0000000879
B1327403653655N00525080WA0000000879
B1327413653659N00525082WA0000000878
B1327423653662N00525084WA0000000877
B1327433653666N00525086WA0000000877
B1327443653669N00525087WA0000000876
B1327453653673N00525088WA0000000876
B1327463653676N00525089WA0000000876
B1327473653680N00525090WA0000000875
B1327483653684N00525090WA0000000874
B1327493653688N00525089WA0000000873
B1327503653692N00525089WA0000000872
B1327513653697N00525089WA0000000870
B1327523653701N00525090WA0000000869
B1327533653705N00525090WA0000000868
B1327543653710N00525090WA0000000867
B1327553653714N00525090WA0000000867
B1327563653718N00525090WA0000000867
B1327573653722N00525090WA0000000867
B1327583653726N00525091WA0000000866
B1327593653730N00525091WA0000000865
B1328003653735N00525092WA0000000865
B1328013653738N00525092WA0000000865
B1328023653742N00525091WA0000000865
B1328033653746N00525091WA0000000865
B1328043653750N00525090WA0000000864
B1328053653754N00525089WA0000000864
B1328063653758N00525088WA0000000864
B1328073653762N00525086WA0000000864
B1328083653766N00525085WA0000000864
B1328093653770N00525084WA0000000863
B1328103653774N00525083WA0000000863
B1328113653778N00525081WA0000000863
B1328123653782N00525080WA0000000862
B1328133653786N00525080WA0000000863
B1328143653790N00525079WA0000000863
B1328153653794N00525079WA0000000862
B1328163653797N00525079WA0000000862
B1328173653801N00525078WA0000000862
B1328183653805N00525077WA0000000862
B1328193653809N00525076WA0000000862
B1328203653814N00525073WA0000000861
B1328213653818N00525071WA0000000860
B1328223653823N00525068WA0000000860
B1328233653828N00525066WA0000000859
B1328243653832N00525064WA0000000859
B1328253653837N00525063WA0000000859
B1328263653841N00525062WA0000000858
B1328273653846N00525061WA0000000857
B1328283653851N00525060WA0000000856
B1328293653856N00525059WA0000000856
B1328303653862N00525059WA0000000855
B1328313653867N00525059WA0000000855
B1328323653872N00525058WA0000000855
B1328333653877N00525057WA0000000855
B1328343653881N00525056WA0000000854
B1328353653886N00525055WA0000000853
B1328363653891N00525054WA0000000852
B1328373653896N00525053WA0000000852
B1328383653901N00525052WA0000000851
B1328393653906N00525050WA0000000849
B1328403653911N00525048WA0000000848
B1328413653916N00525046WA0000000846
B1328423653922N00525043WA0000000844
B1328433653927N00525040WA0000000843
B1328443653931N00525037WA0000000842
B1328453653936N00525035WA0000000840
B1328463653940N00525033WA0000000838
B1328473653945N00525033WA0000000835
B1328483653950N00525032WA0000000833
B1328493653955N00525032WA0000000832
B1328503653961N00525032WA0000000830
B1328513653966N00525032WA0000000829
B1328523653971N00525032WA0000000829
B1328533653976N00525034WA0000000828
B1328543653980N00525035WA0000000827
B1328553653986N00525035WA0000000828
B1328563653991N00525036WA0000000829
B1328573653996N00525036WA0000000830
B1328583654001N00525036WA0000000830
B1328593654005N00525035WA0000000831
B1329003654010N00525034WA0000000830
B1329013654015N00525031WA0000000831
B1329023654020N00525029WA0000000831
B1329033654025N00525027WA0000000831
B1329043654029N00525026WA0000000831
B1329053654033N00525024WA0000000831
B1329063654038N00525023WA0000000831
B1329073654043N00525021WA0000000832
B1329083654049N00525019WA0000000833
B1329093654054N00525017WA0000000835
B1329103654058N00525016WA0000000836
B1329113654062N00525016WA0000000837
B1329123654066N00525014WA0000000837
B1329133654070N00525013WA0000000838
B1329143654074N00525010WA0000000838
B1329153654078N00525008WA0000000839
B1329163654082N00525004WA0000000839
B1329173654086N00525000WA0000000840
B1329183654090N00524996WA0000000840
B1329193654094N00524993WA0000000842
B1329203654098N00524991WA0000000843
B1329213654101N00524990WA0000000844
B1329223654104N00524989WA0000000844
B1329233654108N00524990WA0000000845
B1329243654112N00524991WA0000000846
B1329253654116N00524993WA0000000848
B1329263654119N00524995WA0000000850
B1329273654121N00524998WA0000000852
B1329283654123N00525001WA0000000854
B1329293654124N00525004WA0000000856
B1329303654125N00525007WA0000000858
B1329313654126N00525011WA0000000859
B1329323654125N00525016WA0000000860
B1329333654124N00525020WA0000000861
B1329343654121N00525024WA0000000862
B1329353654117N00525026WA0000000861
B1329363654112N00525028WA0000000860
B1329373654106N00525028WA0000000860
B1329383654100N00525027WA0000000860
B1329393654094N00525026WA0000000860
B1329403654088N00525024WA0000000860
B1329413654083N00525021WA0000000861
B1329423654077N00525018WA0000000862
B1329433654073N00525014WA0000000862
B1329453654065N00525004WA0000000861
B1329453654065N00525004WA0000000861
B1329463654062N00524998WA0000000860
B1329473654060N00524991WA0000000860
B1329483654059N00524983WA0000000860
B1329493654059N00524975WA0000000860
B1329503654060N00524968WA0000000860
B1329513654062N00524962WA0000000860
B1329523654066N00524957WA0000000861
B1329533654071N00524953WA0000000862
B1329543654075N00524952WA0000000863
B1329553654079N00524951WA0000000864
B1329563654083N00524950WA0000000866
B1329573654087N00524950WA0000000868
B1329583654091N00524950WA0000000869
B1329593654095N00524950WA0000000871
B1330003654099N00524950WA0000000873
B1330013654103N00524951WA0000000875
B1330023654107N00524952WA0000000877
B1330033654111N00524954WA0000000879
B1330043654114N00524954WA0000000881
B1330053654118N00524955WA0000000883
B1330063654122N00524956WA0000000885
B1330073654124N00524959WA0000000887
B1330083654127N00524962WA0000000889
B1330093654128N00524966WA0000000891
B1330103654128N00524971WA0000000893
B1330113654128N00524975WA0000000894
B1330123654127N00524980WA0000000895
B1330133654125N00524984WA0000000896
B1330143654124N00524987WA0000000896
B1330153654121N00524991WA0000000896
B1330163654118N00524995WA0000000896
B1330173654114N00524997WA0000000895
B1330183654109N00524999WA0000000894
B1330193654103N00525000WA0000000895
B1330203654097N00524997WA0000000895
B1330213654092N00524993WA0000000896
B1330223654087N00524987WA0000000895
B1330233654085N00524980WA0000000895
B1330243654084N00524972WA0000000895
B1330253654084N00524964WA0000000895
B1330263654085N00524957WA0000000895
B1330273654087N00524950WA0000000895
B1330283654090N00524943WA0000000895
B1330293654094N00524939WA0000000895
B1330303654098N00524935WA0000000895
B1330313654102N00524933WA0000000896
B1330323654106N00524933WA0000000897
B1330333654110N00524933WA0000000899
B1330343654114N00524934WA0000000900
B1330353654117N00524935WA0000000901
B1330363654121N00524937WA0000000903
B1330373654125N00524939WA0000000904
B1330383654128N00524942WA0000000906
B1330393654130N00524946WA0000000908
B1330403654132N00524950WA0000000909
B1330413654134N00524953WA0000000909
B1330423654137N00524956WA0000000909
B1330433654139N00524959WA0000000909
B1330443654141N00524962WA0000000909
B1330453654142N00524966WA0000000909
B1330463654142N00524970WA0000000908
B1330473654141N00524975WA0000000908
B1330483654140N00524980WA0000000907
B1330493654137N00524984WA0000000906
B1330503654133N00524986WA0000000905
B1330513654128N00524988WA0000000903
B1330523654123N00524989WA0000000902
B1330533654117N00524990WA0000000902
B1330543654112N00524991WA0000000902
B1330553654108N00524992WA0000000901
B1330563654104N00524994WA0000000899
B1330573654099N00524996WA0000000898
B1330583654094N00524997WA0000000898
B1330593654089N00524998WA0000000898
B1331003654084N00524999WA0000000898
B1331013654080N00524999WA0000000898
B1331023654075N00524999WA0000000898
B1331033654071N00525000WA0000000897
B1331043654066N00525001WA0000000897
B1331053654060N00525002WA0000000897
B1331063654055N00525002WA0000000897
B1331073654050N00525003WA0000000897
B1331083654045N00525003WA0000000896
B1331093654040N00525003WA0000000896
B1331103654035N00525003WA0000000895
B1331113654029N00525003WA0000000895
B1331123654023N00525004WA0000000896
B1331133654018N00525005WA0000000897
B1331143654014N00525005WA0000000898
B1331153654009N00525006WA0000000899
B1331163654004N00525007WA0000000900
B1331173653999N00525008WA0000000901
B1331183653994N00525009WA0000000902
B1331193653989N00525010WA0000000903
B1331203653984N00525012WA0000000903
B1331213653979N00525014WA0000000904
B1331223653974N00525016WA0000000905
B1331233653968N00525017WA0000000907
B1331243653962N00525018WA0000000909
B1331253653957N00525019WA0000000911
B1331263653951N00525021WA0000000913
B1331273653947N00525023WA0000000915
B1331283653943N00525025WA0000000917
B1331293653940N00525026WA0000000918
B1331303653936N00525028WA0000000919
B1331313653932N00525029WA0000000919
B1331323653928N00525030WA0000000919
B1331333653924N00525031WA0000000920
B1331343653919N00525032WA0000000920
B1331353653915N00525033WA0000000920
B1331363653910N00525033WA0000000922
B1331373653905N00525033WA0000000923
B1331383653901N00525033WA0000000924
B1331393653898N00525033WA0000000924
B1331403653894N00525034WA0000000923
B1331413653890N00525035WA0000000922
B1331423653886N00525035WA0000000921
B1331433653882N00525034WA0000000919
B1331443653878N00525034WA0000000918
B1331453653873N00525032WA0000000916
B1331463653868N00525031WA0000000913
B1331473653863N00525029WA0000000910
B1331483653857N00525029WA0000000909
B1331493653852N00525027WA0000000907
B1331503653847N00525027WA0000000906
B1331513653843N00525028WA0000000903
B1331523653839N00525030WA0000000901
B1331533653836N00525034WA0000000898
B1331543653834N00525039WA0000000895
B1331553653833N00525044WA0000000893
B1331563653835N00525049WA0000000890
B1331573653838N00525052WA0000000888
B1331583653842N00525053WA0000000886
B1331593653846N00525054WA0000000884
B1332003653851N00525055WA0000000882
B1332013653856N00525055WA0000000881
B1332023653861N00525056WA0000000880
B1332033653866N00525056WA0000000879
B1332043653872N00525057WA0000000878
B1332053653877N00525058WA0000000878
B1332063653882N00525059WA0000000879
B1332073653887N00525060WA0000000879
B1332083653892N00525061WA0000000881
B1332093653896N00525061WA0000000882
B1332103653901N00525062WA0000000883
B1332113653906N00525065WA0000000884
B1332123653910N00525067WA0000000886
B1332133653915N00525069WA0000000887
B1332143653919N00525070WA0000000889
B1332153653923N00525070WA0000000889
B1332163653928N00525071WA0000000890
B1332173653933N00525073WA0000000890
B1332183653938N00525076WA0000000891
B1332193653943N00525078WA0000000892
B1332203653948N00525081WA0000000894
B1332213653952N00525084WA0000000896
B1332223653956N00525086WA0000000898
B1332233653959N00525088WA0000000900
B1332243653961N00525089WA0000000902
B1332253653964N00525090WA0000000904
B1332263653966N00525092WA0000000906
B1332273653969N00525093WA0000000908
B1332283653971N00525096WA0000000909
B1332293653973N00525099WA0000000911
B1332303653974N00525103WA0000000912
B1332313653974N00525107WA0000000913
B1332323653974N00525111WA0000000914
B1332333653972N00525116WA0000000913
B1332343653967N00525120WA0000000913
B1332353653962N00525123WA0000000914
B1332363653955N00525124WA0000000915
B1332373653949N00525124WA0000000916
B1332383653943N00525122WA0000000917
B1332393653937N00525119WA0000000918
B1332403653933N00525114WA0000000919
B1332413653930N00525109WA0000000922
B1332423653928N00525103WA0000000923
B1332433653927N00525098WA0000000925
B1332443653926N00525091WA0000000926
B1332453653926N00525084WA0000000928
B1332463653925N00525077WA0000000931
B1332473653924N00525071WA0000000934
B1332483653923N00525064WA0000000936
B1332493653923N00525057WA0000000938
B1332503653923N00525051WA0000000939
B1332513653923N00525045WA0000000941
B1332523653923N00525039WA0000000942
B1332533653923N00525033WA0000000943
B1332543653925N00525026WA0000000944
B1332553653928N00525019WA0000000946
B1332563653931N00525013WA0000000947
B1332573653934N00525007WA0000000950
B1332583653937N00525002WA0000000952
B1332593653941N00524997WA0000000953
B1333003653944N00524994WA0000000955
B1333013653948N00524992WA0000000956
B1333023653952N00524991WA0000000957
B1333033653956N00524991WA0000000959
B1333043653959N00524994WA0000000960
B1333053653962N00524998WA0000000960
B1333063653963N00525002WA0000000960
B1333073653964N00525007WA0000000961
B1333083653963N00525012WA0000000962
B1333093653961N00525017WA0000000962
B1333103653958N00525021WA0000000962
B1333113653954N00525024WA0000000962
B1333123653950N00525027WA0000000962
B1333133653945N00525029WA0000000963
B1333143653940N00525030WA0000000963
B1333153653934N00525030WA0000000964
B1333163653928N00525029WA0000000965
B1333173653923N00525028WA0000000968
B1333183653917N00525027WA0000000970
B1333193653912N00525026WA0000000972
B1333203653907N00525024WA0000000974
B1333213653902N00525023WA0000000976
B1333223653896N00525022WA0000000979
B1333233653892N00525021WA0000000981
B1333243653887N00525019WA0000000983
B1333253653883N00525017WA0000000985
B1333263653878N00525016WA0000000986
B1333273653873N00525014WA0000000988
B1333283653868N00525012WA0000000990
B1333293653863N00525010WA0000000992
B1333303653858N00525008WA0000000994
B1333313653854N00525006WA0000000997
B1333323653849N00525004WA0000000999
B1333333653844N00525002WA0000001001
B1333343653840N00525000WA0000001003
B1333353653835N00524998WA0000001004
B1333363653830N00524996WA0000001005
B1333373653826N00524995WA0000001006
B1333383653821N00524993WA0000001007
B1333393653817N00524991WA0000001007
B1333403653812N00524989WA0000001007
B1333413653807N00524988WA0000001008
B1333423653802N00524986WA0000001010
B1333433653798N00524984WA0000001012
B1333453653789N00524982WA0000001015
B1333463653785N00524980WA0000001017
B1333473653781N00524978WA0000001019
B1333473653781N00524978WA0000001019
B1333483653778N00524977WA0000001021
B1333493653774N00524977WA0000001021
B1333503653770N00524977WA0000001021
B1333513653765N00524977WA0000001022
B1333523653761N00524977WA0000001022
B1333533653757N00524978WA0000001023
B1333543653753N00524978WA0000001022
B1333553653749N00524979WA0000001022
B1333563653745N00524979WA0000001021
B1333573653740N00524980WA0000001021
B1333583653735N00524981WA0000001022
B1333593653730N00524982WA0000001023
B1334003653727N00524983WA0000001024
B1334013653723N00524984WA0000001025
B1334023653719N00524986WA0000001025
B1334033653716N00524987WA0000001026
B1334043653711N00524989WA0000001026
B1334053653707N00524991WA0000001027
B1334063653703N00524994WA0000001028
B1334073653699N00524996WA0000001029
B1334083653695N00524999WA0000001030
B1334093653691N00525001WA0000001030
B1334103653687N00525002WA0000001031
B1334113653683N00525002WA0000001031
B1334123653680N00525003WA0000001032
B1334133653676N00525003WA0000001033
B1334143653673N00525004WA0000001033
B1334153653669N00525004WA0000001032
B1334163653665N00525005WA0000001031
B1334173653661N00525006WA0000001030
B1334183653656N00525006WA0000001029
B1334193653652N00525007WA0000001028
B1334203653648N00525006WA0000001026
B1334213653643N00525006WA0000001024
B1334223653639N00525006WA0000001022
B1334233653634N00525006WA0000001021
B1334243653629N00525006WA0000001020
B1334253653624N00525005WA0000001019
B1334263653619N00525004WA0000001019
B1334273653614N00525003WA0000001018
B1334283653609N00525001WA0000001018
B1334293653605N00525000WA0000001017
B1334303653599N00524999WA0000001016
B1334313653594N00524999WA0000001015
B1334323653589N00524999WA0000001014
B1334333653585N00524999WA0000001014
B1334343653581N00524999WA0000001013
B1334353653577N00524998WA0000001011
B1334363653572N00524997WA0000001010
B1334373653567N00524997WA0000001010
B1334383653563N00524997WA0000001009
B1334393653560N00524999WA0000001008
B1334403653558N00525002WA0000001007
B1334413653557N00525006WA0000001006
B1334423653557N00525009WA0000001005
B1334433653559N00525012WA0000001003
B1334443653563N00525013WA0000001002
B1334453653568N00525013WA0000001000
B1334463653574N00525012WA0000000999
B1334473653579N00525009WA0000000999
B1334483653583N00525006WA0000000998
B1334493653585N00525003WA0000000997
B1334503653588N00525000WA0000000996
B1334513653591N00524998WA0000000994
B1334523653594N00524995WA0000000992
B1334533653598N00524991WA0000000992
B1334543653602N00524988WA0000000992
B1334553653606N00524984WA0000000991
B1334563653609N00524981WA0000000991
B1334573653612N00524977WA0000000990
B1334583653615N00524974WA0000000990
B1334593653619N00524971WA0000000989
B1335003653623N00524968WA0000000989
B1335013653627N00524966WA0000000989
B1335023653630N00524965WA0000000988
B1335033653634N00524965WA0000000987
B1335043653637N00524967WA0000000987
B1335053653639N00524970WA0000000986
B1335063653641N00524975WA0000000986
B1335073653642N00524979WA0000000985
B1335083653641N00524984WA0000000985
B1335093653639N00524989WA0000000984
B1335103653637N00524994WA0000000983
B1335113653633N00524997WA0000000982
B1335123653629N00525000WA0000000981
B1335133653625N00525002WA0000000980
B1335143653620N00525003WA0000000979
B1335153653615N00525003WA0000000977
B1335163653610N00525003WA0000000976
B1335173653604N00525002WA0000000976
B1335183653598N00525001WA0000000975
B1335193653593N00524999WA0000000974
B1335203653588N00524997WA0000000974
B1335213653583N00524994WA0000000972
B1335223653578N00524992WA0000000971
B1335233653573N00524990WA0000000971
B1335243653568N00524988WA0000000970
B1335253653564N00524988WA0000000968
B1335263653560N00524989WA0000000968
B1335273653556N00524991WA0000000967
B1335283653552N00524993WA0000000967
B1335293653549N00524994WA0000000966
B1335303653547N00524996WA0000000965
B1335313653544N00524999WA0000000964
B1335323653542N00525003WA0000000964
B1335333653541N00525008WA0000000963
B1335343653541N00525012WA0000000963
B1335353653543N00525016WA0000000962
B1335363653547N00525018WA0000000961
B1335373653552N00525018WA0000000960
B1335383653558N00525016WA0000000959
B1335393653563N00525013WA0000000959
B1335403653567N00525009WA0000000960
B1335413653571N00525005WA0000000961
B1335423653575N00525001WA0000000961
B1335433653578N00524998WA0000000960
B1335443653582N00524995WA0000000959
B1335453653586N00524992WA0000000959
B1335463653590N00524989WA0000000960
B1335473653594N00524985WA0000000960
B1335483653597N00524982WA0000000959
B1335493653601N00524979WA0000000959
B1335503653605N00524975WA0000000959
B1335513653609N00524972WA0000000959
B1335523653613N00524969WA0000000959
B1335533653617N00524965WA0000000959
B1335543653622N00524962WA0000000959
B1335553653626N00524959WA0000000959
B1335563653630N00524956WA0000000960
B1335573653634N00524954WA0000000961
B1335583653638N00524953WA0000000961
B1335593653641N00524955WA0000000961
B1336003653644N00524958WA0000000961
B1336013653645N00524961WA0000000961
B1336023653645N00524965WA0000000960
B1336033653643N00524969WA0000000960
B1336043653641N00524972WA0000000960
B1336053653638N00524976WA0000000959
B1336063653635N00524979WA0000000959
B1336073653631N00524981WA0000000958
B1336083653627N00524983WA0000000957
B1336093653623N00524984WA0000000956
B1336103653618N00524986WA0000000955
B1336113653613N00524988WA0000000954
B1336123653608N00524989WA0000000953
B1336133653602N00524991WA0000000953
B1336143653597N00524993WA0000000952
B1336153653591N00524995WA0000000951
B1336163653586N00524997WA0000000950
B1336173653581N00524998WA0000000949
B1336183653576N00524999WA0000000948
B1336193653570N00525000WA0000000948
B1336203653565N00525000WA0000000948
B1336213653561N00525000WA0000000947
B1336223653556N00525000WA0000000945
B1336233653551N00525000WA0000000944
B1336243653546N00525002WA0000000943
B1336253653541N00525005WA0000000942
B1336263653537N00525008WA0000000941
B1336273653534N00525012WA0000000941
B1336283653534N00525016WA0000000940
B1336293653535N00525020WA0000000939
B1336303653539N00525022WA0000000938
B1336313653543N00525023WA0000000938
B1336323653548N00525023WA0000000938
B1336333653552N00525022WA0000000938
B1336343653556N00525021WA0000000938
B1336353653559N00525019WA0000000938
B1336363653563N00525017WA0000000938
B1336373653567N00525014WA0000000938
B1336383653571N00525010WA0000000938
B1336393653574N00525004WA0000000938
B1336403653576N00524998WA0000000938
B1336413653578N00524992WA0000000939
B1336423653581N00524986WA0000000939
B1336433653583N00524980WA0000000939
B1336443653586N00524975WA0000000938
B1336453653589N00524969WA0000000938
B1336463653594N00524965WA0000000939
B1336473653598N00524961WA0000000940
B1336483653602N00524959WA0000000941
B1336493653606N00524957WA0000000941
B1336503653610N00524956WA0000000942
B1336513653614N00524954WA0000000943
B1336523653618N00524953WA0000000944
B1336533653622N00524952WA0000000945
B1336543653625N00524951WA0000000946
B1336553653628N00524951WA0000000946
B1336563653632N00524952WA0000000947
B1336573653635N00524954WA0000000948
B1336583653637N00524956WA0000000949
B1336593653639N00524959WA0000000949
B1337003653640N00524962WA0000000950
B1337013653641N00524966WA0000000952
B1337023653641N00524970WA0000000953
B1337033653642N00524974WA0000000955
B1337043653642N00524978WA0000000957
B1337053653643N00524981WA0000000959
B1337063653642N00524985WA0000000960
B1337073653641N00524988WA0000000960
B1337083653640N00524993WA0000000960
B1337093653638N00524997WA0000000960
B1337103653636N00525001WA0000000961
B1337113653633N00525006WA0000000961
B1337123653630N00525011WA0000000961
B1337133653628N00525016WA0000000961
B1337143653625N00525021WA0000000960
B1337153653624N00525026WA0000000960
B1337163653622N00525030WA0000000959
B1337173653620N00525035WA0000000959
B1337183653619N00525040WA0000000958
B1337193653616N00525045WA0000000958
B1337203653614N00525050WA0000000958
B1337213653611N00525055WA0000000958
B1337223653608N00525060WA0000000958
B1337233653605N00525066WA0000000958
B1337243653603N00525071WA0000000958
B1337253653601N00525076WA0000000959
B1337263653600N00525080WA0000000958
B1337273653599N00525084WA0000000958
B1337283653598N00525088WA0000000957
B1337293653598N00525092WA0000000956
B1337303653599N00525096WA0000000956
B1337313653600N00525099WA0000000956
B1337323653602N00525100WA0000000955
B1337333653603N00525101WA0000000955
B1337343653605N00525102WA0000000954
B1337353653608N00525101WA0000000953
B1337363653611N00525099WA0000000952
B1337373653614N00525096WA0000000951
B1337383653617N00525090WA0000000951
B1337393653618N00525084WA0000000950
B1337403653619N00525077WA0000000948
B1337413653618N00525069WA0000000948
B1337423653617N00525061WA0000000947
B1337433653616N00525054WA0000000947
B1337443653616N00525047WA0000000947
B1337453653615N00525041WA0000000946
B1337463653616N00525034WA0000000945
B1337473653616N00525027WA0000000944
B1337483653616N00525021WA0000000943
B1337493653616N00525014WA0000000942
B1337503653617N00525008WA0000000941
B1337513653618N00525002WA0000000941
B1337523653620N00524997WA0000000940
B1337533653621N00524993WA0000000939
B1337543653622N00524988WA0000000938
B1337553653624N00524983WA0000000936
B1337563653625N00524979WA0000000936
B1337573653627N00524974WA0000000936
B1337583653630N00524970WA0000000935
B1337593653633N00524967WA0000000935
B1338003653636N00524965WA0000000936
B1338013653639N00524963WA0000000936
B1338023653642N00524960WA0000000937
B1338033653645N00524957WA0000000938
B1338043653648N00524955WA0000000939
B1338053653652N00524954WA0000000941
B1338063653655N00524955WA0000000942
B1338073653657N00524956WA0000000943
B1338083653659N00524959WA0000000944
B1338093653660N00524961WA0000000945
B1338103653661N00524962WA0000000947
B1338113653662N00524965WA0000000948
B1338123653664N00524967WA0000000950
B1338133653664N00524969WA0000000951
B1338143653665N00524972WA0000000953
B1338153653666N00524974WA0000000953
B1338163653667N00524977WA0000000954
B1338173653668N00524980WA0000000954
B1338183653669N00524982WA0000000954
B1338193653670N00524985WA0000000954
B1338203653672N00524987WA0000000954
B1338213653674N00524989WA0000000953
B1338223653675N00524991WA0000000952
B1338233653678N00524991WA0000000951
B1338243653680N00524991WA0000000950
B1338253653683N00524990WA0000000949
B1338263653686N00524987WA0000000947
B1338273653690N00524984WA0000000945
B1338283653694N00524981WA0000000944
B1338293653698N00524977WA0000000943
B1338303653702N00524973WA0000000942
B1338313653705N00524970WA0000000941
B1338323653709N00524967WA0000000941
B1338333653712N00524965WA0000000940
B1338343653716N00524963WA0000000940
B1338353653719N00524961WA0000000941
B1338363653722N00524959WA0000000940
B1338373653724N00524957WA0000000940
B1338383653727N00524956WA0000000939
B1338393653731N00524955WA0000000939
B1338403653734N00524955WA0000000939
B1338413653736N00524955WA0000000940
B1338423653738N00524957WA0000000939
B1338433653738N00524961WA0000000938
B1338443653736N00524965WA0000000937
B1338453653732N00524969WA0000000937
B1338463653726N00524971WA0000000936
B1338473653720N00524970WA0000000935
B1338483653714N00524967WA0000000935
B1338493653709N00524964WA0000000934
B1338503653703N00524960WA0000000933
B1338513653698N00524956WA0000000931
B1338523653692N00524952WA0000000931
B1338533653687N00524948WA0000000930
B1338543653682N00524944WA0000000930
B1338553653676N00524940WA0000000929
B1338563653672N00524937WA0000000928
B1338573653666N00524935WA0000000928
B1338583653661N00524935WA0000000927
B1338593653656N00524935WA0000000927
B1339003653651N00524936WA0000000926
B1339013653647N00524938WA0000000926
B1339023653643N00524939WA0000000925
B1339033653640N00524943WA0000000924
B1339043653638N00524947WA0000000923
B1339053653638N00524952WA0000000923
B1339063653639N00524956WA0000000922
B1339073653642N00524958WA0000000922
B1339083653646N00524959WA0000000922
B1339093653650N00524958WA0000000922
B1339103653654N00524956WA0000000923
B1339113653658N00524952WA0000000924
B1339123653661N00524949WA0000000925
B1339133653664N00524947WA0000000925
B1339143653667N00524946WA0000000926
B1339153653671N00524944WA0000000926
B1339163653675N00524943WA0000000927
B1339173653677N00524942WA0000000928
B1339183653679N00524941WA0000000929
B1339193653682N00524942WA0000000929
B1339203653684N00524942WA0000000929
B1339213653687N00524942WA0000000928
B1339223653689N00524943WA0000000927
B1339233653692N00524944WA0000000927
B1339243653694N00524945WA0000000927
B1339253653697N00524945WA0000000926
B1339263653700N00524945WA0000000926
B1339273653703N00524945WA0000000926
B1339283653705N00524946WA0000000925
B1339293653707N00524947WA0000000925
B1339303653708N00524948WA0000000924
B1339313653710N00524948WA0000000923
B1339323653712N00524949WA0000000923
B1339333653714N00524950WA0000000922
B1339343653715N00524950WA0000000921
B1339353653717N00524951WA0000000920
B1339363653718N00524951WA0000000920
B1339373653718N00524951WA0000000919
B1339383653718N00524952WA0000000919
B1339393653718N00524952WA0000000919
B1339403653718N00524952WA0000000919
B1339413653718N00524952WA0000000919
B1339423653718N00524952WA0000000919
B1339433653718N00524952WA0000000919
B1339443653718N00524952WA0000000919
B1339453653718N00524952WA0000000919
B1339463653718N00524952WA0000000919
B1339473653718N00524952WA0000000919
B1339483653718N00524952WA0000000919
B1339493653718N00524952WA0000000919
B1339503653718N00524952WA0000000919
B1339513653718N00524952WA0000000919
B1339523653718N00524952WA0000000919
B1339533653718N00524952WA0000000919
B1339543653718N00524952WA0000000919
B1339553653718N00524952WA0000000919
B1339563653718N00524952WA0000000919
B1339573653718N00524952WA0000000919
B1339583653718N00524952WA0000000919
B1339593653718N00524952WA0000000919
Gc474d90704cf35d4
G905d0032bc969c94
G9e4cc3eca4599b50
Gdacd164bafef8140
G9477e9e6965bf0c7
G8856c43da791cd49
Ga8bd51ce40526485
G2ddff577e477d05e
